<?xml version="1.0" encoding="utf-8"?>
<gpx xmlns:xsi="http://www.w3.org/2001/XMLSchema-instance" xmlns:xsd="http://www.w3.org/2001/XMLSchema" version="1.1" creator="Shapelink.com" xmlns="http://www.topografix.com/GPX/1/1" xmlns:gpxtpx="http://www.garmin.com/xmlschemas/TrackPointExtension/v1">
  <metadata>
    <name>Running 12.09 km, 2012-08-19</name>
    <desc></desc>
    <author><name>Ulf Andrae</name></author> 
    <time>2012-08-19T17:36:22Z</time>
  </metadata>
  <trk>
    <name>Running 12.09 km, 2012-08-19</name>
    <trkseg>
      <trkpt lat="58.6616957467" lon="16.0060403869">
        <ele>87.14</ele>
        <time>2012-08-19T17:36:22Z</time>
      </trkpt>
      <trkpt lat="58.6617205571" lon="16.0059997346">
        <ele>87.14</ele>
        <time>2012-08-19T17:36:26Z</time>
      </trkpt>
      <trkpt lat="58.6617543362" lon="16.0059936997">
        <ele>87.14</ele>
        <time>2012-08-19T17:36:30Z</time>
      </trkpt>
      <trkpt lat="58.6618271749" lon="16.0062011518">
        <ele>86.66</ele>
        <time>2012-08-19T17:36:36Z</time>
      </trkpt>
      <trkpt lat="58.6617167015" lon="16.0069640726">
        <ele>86.66</ele>
        <time>2012-08-19T17:36:50Z</time>
      </trkpt>
      <trkpt lat="58.6616145261" lon="16.007389538">
        <ele>87.14</ele>
        <time>2012-08-19T17:36:59Z</time>
      </trkpt>
      <trkpt lat="58.6615689285" lon="16.0075834952">
        <ele>86.66</ele>
        <time>2012-08-19T17:37:03Z</time>
      </trkpt>
      <trkpt lat="58.6615341436" lon="16.0077664722">
        <ele>87.14</ele>
        <time>2012-08-19T17:37:07Z</time>
      </trkpt>
      <trkpt lat="58.6614350695" lon="16.0081923567">
        <ele>87.14</ele>
        <time>2012-08-19T17:37:17Z</time>
      </trkpt>
      <trkpt lat="58.6612871289" lon="16.0087029822">
        <ele>87.62</ele>
        <time>2012-08-19T17:37:29Z</time>
      </trkpt>
      <trkpt lat="58.6612492427" lon="16.0088143777">
        <ele>87.14</ele>
        <time>2012-08-19T17:37:32Z</time>
      </trkpt>
      <trkpt lat="58.6611018889" lon="16.0092094168">
        <ele>88.58</ele>
        <time>2012-08-19T17:37:42Z</time>
      </trkpt>
      <trkpt lat="58.6610746477" lon="16.0092934873">
        <ele>88.58</ele>
        <time>2012-08-19T17:37:44Z</time>
      </trkpt>
      <trkpt lat="58.6610596441" lon="16.0093949921">
        <ele>89.06</ele>
        <time>2012-08-19T17:37:46Z</time>
      </trkpt>
      <trkpt lat="58.6611665133" lon="16.0096742772">
        <ele>87.62</ele>
        <time>2012-08-19T17:37:52Z</time>
      </trkpt>
      <trkpt lat="58.6613470595" lon="16.0101512074">
        <ele>87.62</ele>
        <time>2012-08-19T17:38:04Z</time>
      </trkpt>
      <trkpt lat="58.6615356524" lon="16.0106378607">
        <ele>88.1</ele>
        <time>2012-08-19T17:38:16Z</time>
      </trkpt>
      <trkpt lat="58.6616802402" lon="16.0110562854">
        <ele>89.06</ele>
        <time>2012-08-19T17:38:27Z</time>
      </trkpt>
      <trkpt lat="58.6619365588" lon="16.0115102492">
        <ele>89.54</ele>
        <time>2012-08-19T17:38:40Z</time>
      </trkpt>
      <trkpt lat="58.6622160953" lon="16.0115403403">
        <ele>89.06</ele>
        <time>2012-08-19T17:38:50Z</time>
      </trkpt>
      <trkpt lat="58.6623862479" lon="16.0114809964">
        <ele>88.58</ele>
        <time>2012-08-19T17:38:55Z</time>
      </trkpt>
      <trkpt lat="58.6626040097" lon="16.0114638135">
        <ele>88.1</ele>
        <time>2012-08-19T17:39:02Z</time>
      </trkpt>
      <trkpt lat="58.6627152376" lon="16.0113896336">
        <ele>88.58</ele>
        <time>2012-08-19T17:39:06Z</time>
      </trkpt>
      <trkpt lat="58.6627667863" lon="16.011340851">
        <ele>88.58</ele>
        <time>2012-08-19T17:39:08Z</time>
      </trkpt>
      <trkpt lat="58.6629464105" lon="16.0111350752">
        <ele>87.62</ele>
        <time>2012-08-19T17:39:15Z</time>
      </trkpt>
      <trkpt lat="58.6630173214" lon="16.0110556986">
        <ele>86.66</ele>
        <time>2012-08-19T17:39:18Z</time>
      </trkpt>
      <trkpt lat="58.6632697843" lon="16.0107844602">
        <ele>86.66</ele>
        <time>2012-08-19T17:39:29Z</time>
      </trkpt>
      <trkpt lat="58.6633471493" lon="16.010724362">
        <ele>86.18</ele>
        <time>2012-08-19T17:39:32Z</time>
      </trkpt>
      <trkpt lat="58.6634422839" lon="16.0106426384">
        <ele>86.18</ele>
        <time>2012-08-19T17:39:36Z</time>
      </trkpt>
      <trkpt lat="58.6635524221" lon="16.0105489288">
        <ele>86.18</ele>
        <time>2012-08-19T17:39:41Z</time>
      </trkpt>
      <trkpt lat="58.6637939885" lon="16.0104307439">
        <ele>86.18</ele>
        <time>2012-08-19T17:39:51Z</time>
      </trkpt>
      <trkpt lat="58.6640792247" lon="16.0103794467">
        <ele>86.66</ele>
        <time>2012-08-19T17:40:02Z</time>
      </trkpt>
      <trkpt lat="58.664334286" lon="16.0103781894">
        <ele>86.66</ele>
        <time>2012-08-19T17:40:12Z</time>
      </trkpt>
      <trkpt lat="58.6644147523" lon="16.0103643592">
        <ele>87.14</ele>
        <time>2012-08-19T17:40:15Z</time>
      </trkpt>
      <trkpt lat="58.6647133995" lon="16.0102233756">
        <ele>86.18</ele>
        <time>2012-08-19T17:40:25Z</time>
      </trkpt>
      <trkpt lat="58.6647392157" lon="16.0101979785">
        <ele>86.66</ele>
        <time>2012-08-19T17:40:26Z</time>
      </trkpt>
      <trkpt lat="58.6649696343" lon="16.0098662227">
        <ele>87.14</ele>
        <time>2012-08-19T17:40:37Z</time>
      </trkpt>
      <trkpt lat="58.6650340911" lon="16.0097056255">
        <ele>87.14</ele>
        <time>2012-08-19T17:40:41Z</time>
      </trkpt>
      <trkpt lat="58.6651672795" lon="16.0093256738">
        <ele>86.18</ele>
        <time>2012-08-19T17:40:50Z</time>
      </trkpt>
      <trkpt lat="58.6652389448" lon="16.0090661701">
        <ele>86.66</ele>
        <time>2012-08-19T17:40:56Z</time>
      </trkpt>
      <trkpt lat="58.6652816087" lon="16.0089308862">
        <ele>86.18</ele>
        <time>2012-08-19T17:40:59Z</time>
      </trkpt>
      <trkpt lat="58.6653454788" lon="16.0087199975">
        <ele>87.14</ele>
        <time>2012-08-19T17:41:04Z</time>
      </trkpt>
      <trkpt lat="58.665487133" lon="16.0082722362">
        <ele>86.18</ele>
        <time>2012-08-19T17:41:14Z</time>
      </trkpt>
      <trkpt lat="58.665659884" lon="16.0077615269">
        <ele>85.69</ele>
        <time>2012-08-19T17:41:25Z</time>
      </trkpt>
      <trkpt lat="58.6658239178" lon="16.0073313676">
        <ele>85.69</ele>
        <time>2012-08-19T17:41:35Z</time>
      </trkpt>
      <trkpt lat="58.6658815853" lon="16.0072169546">
        <ele>85.21</ele>
        <time>2012-08-19T17:41:38Z</time>
      </trkpt>
      <trkpt lat="58.6659648176" lon="16.0071110073">
        <ele>85.21</ele>
        <time>2012-08-19T17:41:42Z</time>
      </trkpt>
      <trkpt lat="58.6660504807" lon="16.0070063174">
        <ele>85.21</ele>
        <time>2012-08-19T17:41:46Z</time>
      </trkpt>
      <trkpt lat="58.6661456153" lon="16.0069505777">
        <ele>85.21</ele>
        <time>2012-08-19T17:41:50Z</time>
      </trkpt>
      <trkpt lat="58.6665146705" lon="16.0070346482">
        <ele>83.77</ele>
        <time>2012-08-19T17:42:02Z</time>
      </trkpt>
      <trkpt lat="58.6668254714" lon="16.0072416812">
        <ele>81.85</ele>
        <time>2012-08-19T17:42:13Z</time>
      </trkpt>
      <trkpt lat="58.6670038383" lon="16.0073232371">
        <ele>80.89</ele>
        <time>2012-08-19T17:42:19Z</time>
      </trkpt>
      <trkpt lat="58.6673257034" lon="16.0075222235">
        <ele>78.97</ele>
        <time>2012-08-19T17:42:29Z</time>
      </trkpt>
      <trkpt lat="58.6676304694" lon="16.0078155063">
        <ele>80.89</ele>
        <time>2012-08-19T17:42:42Z</time>
      </trkpt>
      <trkpt lat="58.6677877139" lon="16.0083009861">
        <ele>82.33</ele>
        <time>2012-08-19T17:42:53Z</time>
      </trkpt>
      <trkpt lat="58.6678250134" lon="16.0088011343">
        <ele>84.25</ele>
        <time>2012-08-19T17:43:03Z</time>
      </trkpt>
      <trkpt lat="58.6678504106" lon="16.0092758015">
        <ele>85.69</ele>
        <time>2012-08-19T17:43:12Z</time>
      </trkpt>
      <trkpt lat="58.6678649951" lon="16.009837389">
        <ele>86.66</ele>
        <time>2012-08-19T17:43:22Z</time>
      </trkpt>
      <trkpt lat="58.6678855307" lon="16.0100783687">
        <ele>87.62</ele>
        <time>2012-08-19T17:43:27Z</time>
      </trkpt>
      <trkpt lat="58.6679328047" lon="16.0105045047">
        <ele>88.1</ele>
        <time>2012-08-19T17:43:36Z</time>
      </trkpt>
      <trkpt lat="58.6679628957" lon="16.0107462388">
        <ele>87.14</ele>
        <time>2012-08-19T17:43:41Z</time>
      </trkpt>
      <trkpt lat="58.6680963356" lon="16.0112452134">
        <ele>87.14</ele>
        <time>2012-08-19T17:43:51Z</time>
      </trkpt>
      <trkpt lat="58.6681120098" lon="16.0113341454">
        <ele>87.14</ele>
        <time>2012-08-19T17:43:53Z</time>
      </trkpt>
      <trkpt lat="58.6681805737" lon="16.0115976725">
        <ele>87.62</ele>
        <time>2012-08-19T17:43:59Z</time>
      </trkpt>
      <trkpt lat="58.668367574" lon="16.0120820627">
        <ele>89.06</ele>
        <time>2012-08-19T17:44:10Z</time>
      </trkpt>
      <trkpt lat="58.668602854" lon="16.0124571528">
        <ele>89.54</ele>
        <time>2012-08-19T17:44:22Z</time>
      </trkpt>
      <trkpt lat="58.6688887607" lon="16.0128518566">
        <ele>90.02</ele>
        <time>2012-08-19T17:44:35Z</time>
      </trkpt>
      <trkpt lat="58.6691013258" lon="16.0131937545">
        <ele>89.54</ele>
        <time>2012-08-19T17:44:46Z</time>
      </trkpt>
      <trkpt lat="58.6691467557" lon="16.0133112688">
        <ele>90.5</ele>
        <time>2012-08-19T17:44:49Z</time>
      </trkpt>
      <trkpt lat="58.6691870727" lon="16.0134719498">
        <ele>90.02</ele>
        <time>2012-08-19T17:44:53Z</time>
      </trkpt>
      <trkpt lat="58.6692434829" lon="16.0141004249">
        <ele>90.5</ele>
        <time>2012-08-19T17:45:05Z</time>
      </trkpt>
      <trkpt lat="58.6692578159" lon="16.0142126586">
        <ele>90.5</ele>
        <time>2012-08-19T17:45:07Z</time>
      </trkpt>
      <trkpt lat="58.6692735739" lon="16.0145118926">
        <ele>91.46</ele>
        <time>2012-08-19T17:45:13Z</time>
      </trkpt>
      <trkpt lat="58.6692883261" lon="16.014790507">
        <ele>92.42</ele>
        <time>2012-08-19T17:45:18Z</time>
      </trkpt>
      <trkpt lat="58.6693095323" lon="16.015104074">
        <ele>92.9</ele>
        <time>2012-08-19T17:45:24Z</time>
      </trkpt>
      <trkpt lat="58.6693205964" lon="16.0156633146">
        <ele>92.9</ele>
        <time>2012-08-19T17:45:34Z</time>
      </trkpt>
      <trkpt lat="58.6692398787" lon="16.0161347967">
        <ele>93.87</ele>
        <time>2012-08-19T17:45:44Z</time>
      </trkpt>
      <trkpt lat="58.6692207679" lon="16.0162222199">
        <ele>93.87</ele>
        <time>2012-08-19T17:45:46Z</time>
      </trkpt>
      <trkpt lat="58.6691824626" lon="16.0164316837">
        <ele>92.9</ele>
        <time>2012-08-19T17:45:50Z</time>
      </trkpt>
      <trkpt lat="58.669161927" lon="16.0165813006">
        <ele>92.9</ele>
        <time>2012-08-19T17:45:53Z</time>
      </trkpt>
      <trkpt lat="58.6691147368" lon="16.0168478452">
        <ele>92.9</ele>
        <time>2012-08-19T17:45:58Z</time>
      </trkpt>
      <trkpt lat="58.6690370366" lon="16.0173115321">
        <ele>92.9</ele>
        <time>2012-08-19T17:46:07Z</time>
      </trkpt>
      <trkpt lat="58.6690214463" lon="16.0174050741">
        <ele>92.9</ele>
        <time>2012-08-19T17:46:09Z</time>
      </trkpt>
      <trkpt lat="58.6689856555" lon="16.0179230757">
        <ele>93.39</ele>
        <time>2012-08-19T17:46:18Z</time>
      </trkpt>
      <trkpt lat="58.6689859908" lon="16.0180276819">
        <ele>93.39</ele>
        <time>2012-08-19T17:46:20Z</time>
      </trkpt>
      <trkpt lat="58.669001665" lon="16.018256424">
        <ele>93.39</ele>
        <time>2012-08-19T17:46:24Z</time>
      </trkpt>
      <trkpt lat="58.6690551415" lon="16.0186254792">
        <ele>93.87</ele>
        <time>2012-08-19T17:46:31Z</time>
      </trkpt>
      <trkpt lat="58.6690714862" lon="16.0190804489">
        <ele>94.35</ele>
        <time>2012-08-19T17:46:40Z</time>
      </trkpt>
      <trkpt lat="58.6690787785" lon="16.019288823">
        <ele>93.87</ele>
        <time>2012-08-19T17:46:44Z</time>
      </trkpt>
      <trkpt lat="58.6690620147" lon="16.0193842091">
        <ele>93.87</ele>
        <time>2012-08-19T17:46:46Z</time>
      </trkpt>
      <trkpt lat="58.6689393874" lon="16.0199048929">
        <ele>93.39</ele>
        <time>2012-08-19T17:46:56Z</time>
      </trkpt>
      <trkpt lat="58.6689294968" lon="16.0199648235">
        <ele>93.39</ele>
        <time>2012-08-19T17:46:57Z</time>
      </trkpt>
      <trkpt lat="58.6689118948" lon="16.0200671665">
        <ele>93.39</ele>
        <time>2012-08-19T17:46:59Z</time>
      </trkpt>
      <trkpt lat="58.668790441" lon="16.0206140019">
        <ele>93.39</ele>
        <time>2012-08-19T17:47:10Z</time>
      </trkpt>
      <trkpt lat="58.6687496211" lon="16.020796895">
        <ele>93.87</ele>
        <time>2012-08-19T17:47:14Z</time>
      </trkpt>
      <trkpt lat="58.6686432548" lon="16.0213041678">
        <ele>94.83</ele>
        <time>2012-08-19T17:47:24Z</time>
      </trkpt>
      <trkpt lat="58.6686282512" lon="16.0214004759">
        <ele>94.83</ele>
        <time>2012-08-19T17:47:26Z</time>
      </trkpt>
      <trkpt lat="58.6685981601" lon="16.0216195788">
        <ele>96.27</ele>
        <time>2012-08-19T17:47:31Z</time>
      </trkpt>
      <trkpt lat="58.6686210427" lon="16.0221550148">
        <ele>99.15</ele>
        <time>2012-08-19T17:47:43Z</time>
      </trkpt>
      <trkpt lat="58.6686264072" lon="16.0221946612">
        <ele>99.63</ele>
        <time>2012-08-19T17:47:44Z</time>
      </trkpt>
      <trkpt lat="58.6687327735" lon="16.0225598607">
        <ele>100.11</ele>
        <time>2012-08-19T17:47:52Z</time>
      </trkpt>
      <trkpt lat="58.6688757688" lon="16.0229639523">
        <ele>100.11</ele>
        <time>2012-08-19T17:48:02Z</time>
      </trkpt>
      <trkpt lat="58.6689075362" lon="16.0230493639">
        <ele>100.11</ele>
        <time>2012-08-19T17:48:04Z</time>
      </trkpt>
      <trkpt lat="58.6690926086" lon="16.0235654376">
        <ele>99.63</ele>
        <time>2012-08-19T17:48:17Z</time>
      </trkpt>
      <trkpt lat="58.6691898387" lon="16.0241134465">
        <ele>100.6</ele>
        <time>2012-08-19T17:48:27Z</time>
      </trkpt>
      <trkpt lat="58.6691921018" lon="16.0241613071">
        <ele>100.6</ele>
        <time>2012-08-19T17:48:28Z</time>
      </trkpt>
      <trkpt lat="58.6691406369" lon="16.0246441886">
        <ele>103</ele>
        <time>2012-08-19T17:48:37Z</time>
      </trkpt>
      <trkpt lat="58.6690672114" lon="16.0252041835">
        <ele>103.96</ele>
        <time>2012-08-19T17:48:48Z</time>
      </trkpt>
      <trkpt lat="58.6690647807" lon="16.0257455707">
        <ele>105.88</ele>
        <time>2012-08-19T17:48:59Z</time>
      </trkpt>
      <trkpt lat="58.6691136472" lon="16.0260294657">
        <ele>105.88</ele>
        <time>2012-08-19T17:49:05Z</time>
      </trkpt>
      <trkpt lat="58.6692271382" lon="16.0266456194">
        <ele>104.92</ele>
        <time>2012-08-19T17:49:18Z</time>
      </trkpt>
      <trkpt lat="58.6693361867" lon="16.0272034351">
        <ele>103.48</ele>
        <time>2012-08-19T17:49:28Z</time>
      </trkpt>
      <trkpt lat="58.6693642661" lon="16.0276565608">
        <ele>103</ele>
        <time>2012-08-19T17:49:36Z</time>
      </trkpt>
      <trkpt lat="58.6692817044" lon="16.0280035716">
        <ele>103.48</ele>
        <time>2012-08-19T17:49:44Z</time>
      </trkpt>
      <trkpt lat="58.6692511942" lon="16.0281371791">
        <ele>103</ele>
        <time>2012-08-19T17:49:47Z</time>
      </trkpt>
      <trkpt lat="58.6690641101" lon="16.0281424597">
        <ele>103.96</ele>
        <time>2012-08-19T17:49:54Z</time>
      </trkpt>
      <trkpt lat="58.6690253858" lon="16.0281075072">
        <ele>104.44</ele>
        <time>2012-08-19T17:49:56Z</time>
      </trkpt>
      <trkpt lat="58.6689496133" lon="16.0280982871">
        <ele>104.44</ele>
        <time>2012-08-19T17:49:59Z</time>
      </trkpt>
      <trkpt lat="58.6688127369" lon="16.0282086767">
        <ele>103.48</ele>
        <time>2012-08-19T17:50:05Z</time>
      </trkpt>
      <trkpt lat="58.6687380541" lon="16.0282837786">
        <ele>103.48</ele>
        <time>2012-08-19T17:50:08Z</time>
      </trkpt>
      <trkpt lat="58.6686171032" lon="16.0283774883">
        <ele>102.04</ele>
        <time>2012-08-19T17:50:12Z</time>
      </trkpt>
      <trkpt lat="58.6685565859" lon="16.0284294561">
        <ele>101.56</ele>
        <time>2012-08-19T17:50:14Z</time>
      </trkpt>
      <trkpt lat="58.6684445199" lon="16.0286452062">
        <ele>100.6</ele>
        <time>2012-08-19T17:50:19Z</time>
      </trkpt>
      <trkpt lat="58.6683886964" lon="16.028718045">
        <ele>100.6</ele>
        <time>2012-08-19T17:50:21Z</time>
      </trkpt>
      <trkpt lat="58.6681763828" lon="16.0287925601">
        <ele>98.67</ele>
        <time>2012-08-19T17:50:29Z</time>
      </trkpt>
      <trkpt lat="58.66815635" lon="16.0289249104">
        <ele>97.71</ele>
        <time>2012-08-19T17:50:33Z</time>
      </trkpt>
      <trkpt lat="58.6681916378" lon="16.0294899344">
        <ele>94.83</ele>
        <time>2012-08-19T17:50:42Z</time>
      </trkpt>
      <trkpt lat="58.6681448668" lon="16.0297927726">
        <ele>92.42</ele>
        <time>2012-08-19T17:50:47Z</time>
      </trkpt>
      <trkpt lat="58.6680426914" lon="16.0300526954">
        <ele>91.46</ele>
        <time>2012-08-19T17:50:53Z</time>
      </trkpt>
      <trkpt lat="58.6680612992" lon="16.0306354892">
        <ele>91.46</ele>
        <time>2012-08-19T17:51:04Z</time>
      </trkpt>
      <trkpt lat="58.6681172904" lon="16.0308652371">
        <ele>90.98</ele>
        <time>2012-08-19T17:51:09Z</time>
      </trkpt>
      <trkpt lat="58.6681493931" lon="16.0309656523">
        <ele>90.98</ele>
        <time>2012-08-19T17:51:12Z</time>
      </trkpt>
      <trkpt lat="58.6681871116" lon="16.0311928857">
        <ele>91.46</ele>
        <time>2012-08-19T17:51:17Z</time>
      </trkpt>
      <trkpt lat="58.6681102496" lon="16.0317105521">
        <ele>90.98</ele>
        <time>2012-08-19T17:51:27Z</time>
      </trkpt>
      <trkpt lat="58.6680990178" lon="16.0317593347">
        <ele>90.98</ele>
        <time>2012-08-19T17:51:28Z</time>
      </trkpt>
      <trkpt lat="58.6680768058" lon="16.0319793597">
        <ele>90.98</ele>
        <time>2012-08-19T17:51:32Z</time>
      </trkpt>
      <trkpt lat="58.6680183001" lon="16.03220433">
        <ele>90.98</ele>
        <time>2012-08-19T17:51:36Z</time>
      </trkpt>
      <trkpt lat="58.6680604611" lon="16.0328251775">
        <ele>90.98</ele>
        <time>2012-08-19T17:51:48Z</time>
      </trkpt>
      <trkpt lat="58.6679588724" lon="16.0332707595">
        <ele>90.98</ele>
        <time>2012-08-19T17:51:58Z</time>
      </trkpt>
      <trkpt lat="58.6677912343" lon="16.0335681494">
        <ele>91.46</ele>
        <time>2012-08-19T17:52:07Z</time>
      </trkpt>
      <trkpt lat="58.6677264422" lon="16.0336786229">
        <ele>91.46</ele>
        <time>2012-08-19T17:52:10Z</time>
      </trkpt>
      <trkpt lat="58.6676275358" lon="16.0341654439">
        <ele>91.94</ele>
        <time>2012-08-19T17:52:20Z</time>
      </trkpt>
      <trkpt lat="58.667548243" lon="16.0346101876">
        <ele>90.5</ele>
        <time>2012-08-19T17:52:30Z</time>
      </trkpt>
      <trkpt lat="58.667426873" lon="16.0352500621">
        <ele>90.5</ele>
        <time>2012-08-19T17:52:42Z</time>
      </trkpt>
      <trkpt lat="58.6672982946" lon="16.0358380526">
        <ele>90.5</ele>
        <time>2012-08-19T17:52:53Z</time>
      </trkpt>
      <trkpt lat="58.6673676129" lon="16.0358858295">
        <ele>91.94</ele>
        <time>2012-08-19T17:52:59Z</time>
      </trkpt>
      <trkpt lat="58.6675357539" lon="16.0359564051">
        <ele>95.31</ele>
        <time>2012-08-19T17:53:08Z</time>
      </trkpt>
      <trkpt lat="58.6676536873" lon="16.0361438245">
        <ele>98.19</ele>
        <time>2012-08-19T17:53:14Z</time>
      </trkpt>
      <trkpt lat="58.66783306" lon="16.0364096984">
        <ele>99.63</ele>
        <time>2012-08-19T17:53:23Z</time>
      </trkpt>
      <trkpt lat="58.6678771488" lon="16.0364584811">
        <ele>100.11</ele>
        <time>2012-08-19T17:53:25Z</time>
      </trkpt>
      <trkpt lat="58.6679138616" lon="16.0365299787">
        <ele>100.6</ele>
        <time>2012-08-19T17:53:28Z</time>
      </trkpt>
      <trkpt lat="58.6681120936" lon="16.0367263667">
        <ele>101.56</ele>
        <time>2012-08-19T17:53:36Z</time>
      </trkpt>
      <trkpt lat="58.6682037078" lon="16.0367872193">
        <ele>100.11</ele>
        <time>2012-08-19T17:53:39Z</time>
      </trkpt>
      <trkpt lat="58.6683207192" lon="16.0367469024">
        <ele>100.6</ele>
        <time>2012-08-19T17:53:43Z</time>
      </trkpt>
      <trkpt lat="58.668360617" lon="16.0367018916">
        <ele>101.08</ele>
        <time>2012-08-19T17:53:45Z</time>
      </trkpt>
      <trkpt lat="58.6684295163" lon="16.0366526898">
        <ele>101.56</ele>
        <time>2012-08-19T17:53:49Z</time>
      </trkpt>
      <trkpt lat="58.668591287" lon="16.0365280509">
        <ele>97.71</ele>
        <time>2012-08-19T17:53:56Z</time>
      </trkpt>
      <trkpt lat="58.6687145848" lon="16.0364901647">
        <ele>96.27</ele>
        <time>2012-08-19T17:54:01Z</time>
      </trkpt>
      <trkpt lat="58.6688625254" lon="16.0364038311">
        <ele>93.39</ele>
        <time>2012-08-19T17:54:10Z</time>
      </trkpt>
      <trkpt lat="58.6688626092" lon="16.036421014">
        <ele>93.39</ele>
        <time>2012-08-19T17:54:11Z</time>
      </trkpt>
      <trkpt lat="58.6688679736" lon="16.0364945233">
        <ele>91.46</ele>
        <time>2012-08-19T17:54:14Z</time>
      </trkpt>
      <trkpt lat="58.6689612642" lon="16.0367183201">
        <ele>90.98</ele>
        <time>2012-08-19T17:54:24Z</time>
      </trkpt>
      <trkpt lat="58.668876607" lon="16.0371320508">
        <ele>92.42</ele>
        <time>2012-08-19T17:54:36Z</time>
      </trkpt>
      <trkpt lat="58.668678375" lon="16.0372966714">
        <ele>92.42</ele>
        <time>2012-08-19T17:54:45Z</time>
      </trkpt>
      <trkpt lat="58.6686249822" lon="16.0372928996">
        <ele>92.42</ele>
        <time>2012-08-19T17:54:47Z</time>
      </trkpt>
      <trkpt lat="58.6683651432" lon="16.0374582745">
        <ele>91.46</ele>
        <time>2012-08-19T17:54:57Z</time>
      </trkpt>
      <trkpt lat="58.6682393309" lon="16.0376226436">
        <ele>91.46</ele>
        <time>2012-08-19T17:55:03Z</time>
      </trkpt>
      <trkpt lat="58.6680951621" lon="16.0378122423">
        <ele>91.46</ele>
        <time>2012-08-19T17:55:09Z</time>
      </trkpt>
      <trkpt lat="58.6679628957" lon="16.0380608495">
        <ele>90.98</ele>
        <time>2012-08-19T17:55:16Z</time>
      </trkpt>
      <trkpt lat="58.6678791605" lon="16.0384185053">
        <ele>91.46</ele>
        <time>2012-08-19T17:55:25Z</time>
      </trkpt>
      <trkpt lat="58.6678772327" lon="16.0384629294">
        <ele>91.94</ele>
        <time>2012-08-19T17:55:26Z</time>
      </trkpt>
      <trkpt lat="58.6678703595" lon="16.0385112092">
        <ele>91.94</ele>
        <time>2012-08-19T17:55:27Z</time>
      </trkpt>
      <trkpt lat="58.6678856146" lon="16.0386829544">
        <ele>93.39</ele>
        <time>2012-08-19T17:55:32Z</time>
      </trkpt>
      <trkpt lat="58.6678932421" lon="16.0388499219">
        <ele>94.35</ele>
        <time>2012-08-19T17:55:36Z</time>
      </trkpt>
      <trkpt lat="58.6679594591" lon="16.0391964298">
        <ele>96.27</ele>
        <time>2012-08-19T17:55:43Z</time>
      </trkpt>
      <trkpt lat="58.6679591238" lon="16.0394467134">
        <ele>96.75</ele>
        <time>2012-08-19T17:55:48Z</time>
      </trkpt>
      <trkpt lat="58.6679229978" lon="16.0396415088">
        <ele>97.23</ele>
        <time>2012-08-19T17:55:52Z</time>
      </trkpt>
      <trkpt lat="58.6679028813" lon="16.0400942992">
        <ele>98.67</ele>
        <time>2012-08-19T17:56:01Z</time>
      </trkpt>
      <trkpt lat="58.6679139454" lon="16.0402182676">
        <ele>99.63</ele>
        <time>2012-08-19T17:56:04Z</time>
      </trkpt>
      <trkpt lat="58.667926183" lon="16.0403703991">
        <ele>99.63</ele>
        <time>2012-08-19T17:56:08Z</time>
      </trkpt>
      <trkpt lat="58.6679253448" lon="16.0405330081">
        <ele>100.11</ele>
        <time>2012-08-19T17:56:11Z</time>
      </trkpt>
      <trkpt lat="58.6679383367" lon="16.0408003069">
        <ele>100.6</ele>
        <time>2012-08-19T17:56:16Z</time>
      </trkpt>
      <trkpt lat="58.668015115" lon="16.0410800949">
        <ele>101.08</ele>
        <time>2012-08-19T17:56:23Z</time>
      </trkpt>
      <trkpt lat="58.6680669989" lon="16.0412385128">
        <ele>101.56</ele>
        <time>2012-08-19T17:56:27Z</time>
      </trkpt>
      <trkpt lat="58.6681203078" lon="16.0413573682">
        <ele>102.04</ele>
        <time>2012-08-19T17:56:30Z</time>
      </trkpt>
      <trkpt lat="58.6682077311" lon="16.0416231584">
        <ele>102.52</ele>
        <time>2012-08-19T17:56:36Z</time>
      </trkpt>
      <trkpt lat="58.6683581024" lon="16.0418467037">
        <ele>104.44</ele>
        <time>2012-08-19T17:56:43Z</time>
      </trkpt>
      <trkpt lat="58.6684861779" lon="16.0422070418">
        <ele>104.44</ele>
        <time>2012-08-19T17:56:53Z</time>
      </trkpt>
      <trkpt lat="58.6686448473" lon="16.0424509551">
        <ele>105.4</ele>
        <time>2012-08-19T17:57:00Z</time>
      </trkpt>
      <trkpt lat="58.6687657144" lon="16.0427357722">
        <ele>104.92</ele>
        <time>2012-08-19T17:57:09Z</time>
      </trkpt>
      <trkpt lat="58.668894209" lon="16.0431474075">
        <ele>106.36</ele>
        <time>2012-08-19T17:57:19Z</time>
      </trkpt>
      <trkpt lat="58.6691536289" lon="16.043470446">
        <ele>108.29</ele>
        <time>2012-08-19T17:57:29Z</time>
      </trkpt>
      <trkpt lat="58.6693641823" lon="16.0437747929">
        <ele>104.92</ele>
        <time>2012-08-19T17:57:40Z</time>
      </trkpt>
      <trkpt lat="58.6695649289" lon="16.0439093225">
        <ele>106.36</ele>
        <time>2012-08-19T17:57:49Z</time>
      </trkpt>
      <trkpt lat="58.6698155478" lon="16.0443466902">
        <ele>109.73</ele>
        <time>2012-08-19T17:58:03Z</time>
      </trkpt>
      <trkpt lat="58.6698986124" lon="16.0445709061">
        <ele>112.61</ele>
        <time>2012-08-19T17:58:09Z</time>
      </trkpt>
      <trkpt lat="58.6700732075" lon="16.0448406357">
        <ele>115.5</ele>
        <time>2012-08-19T17:58:19Z</time>
      </trkpt>
      <trkpt lat="58.6703773867" lon="16.0450818669">
        <ele>115.01</ele>
        <time>2012-08-19T17:58:32Z</time>
      </trkpt>
      <trkpt lat="58.670627838" lon="16.0454494134">
        <ele>114.05</ele>
        <time>2012-08-19T17:58:44Z</time>
      </trkpt>
      <trkpt lat="58.6706725974" lon="16.0454836115">
        <ele>114.05</ele>
        <time>2012-08-19T17:58:46Z</time>
      </trkpt>
      <trkpt lat="58.6708268244" lon="16.045543123">
        <ele>114.53</ele>
        <time>2012-08-19T17:58:52Z</time>
      </trkpt>
      <trkpt lat="58.670927994" lon="16.0455480684">
        <ele>114.53</ele>
        <time>2012-08-19T17:58:56Z</time>
      </trkpt>
      <trkpt lat="58.6710192729" lon="16.045620488">
        <ele>114.53</ele>
        <time>2012-08-19T17:59:00Z</time>
      </trkpt>
      <trkpt lat="58.6710854061" lon="16.0456573684">
        <ele>115.98</ele>
        <time>2012-08-19T17:59:03Z</time>
      </trkpt>
      <trkpt lat="58.6713922676" lon="16.0458742082">
        <ele>116.94</ele>
        <time>2012-08-19T17:59:15Z</time>
      </trkpt>
      <trkpt lat="58.671586141" lon="16.0459870286">
        <ele>115.01</ele>
        <time>2012-08-19T17:59:23Z</time>
      </trkpt>
      <trkpt lat="58.67166996" lon="16.0460309498">
        <ele>113.09</ele>
        <time>2012-08-19T17:59:27Z</time>
      </trkpt>
      <trkpt lat="58.6716848798" lon="16.0460540839">
        <ele>113.09</ele>
        <time>2012-08-19T17:59:28Z</time>
      </trkpt>
      <trkpt lat="58.6717341654" lon="16.0465492867">
        <ele>115.98</ele>
        <time>2012-08-19T17:59:38Z</time>
      </trkpt>
      <trkpt lat="58.6717356741" lon="16.0465942137">
        <ele>115.98</ele>
        <time>2012-08-19T17:59:39Z</time>
      </trkpt>
      <trkpt lat="58.6717633344" lon="16.0470041726">
        <ele>118.38</ele>
        <time>2012-08-19T17:59:48Z</time>
      </trkpt>
      <trkpt lat="58.6718586367" lon="16.0474262014">
        <ele>117.42</ele>
        <time>2012-08-19T17:59:57Z</time>
      </trkpt>
      <trkpt lat="58.6718919966" lon="16.0476138722">
        <ele>117.42</ele>
        <time>2012-08-19T18:00:01Z</time>
      </trkpt>
      <trkpt lat="58.6720300466" lon="16.0482157767">
        <ele>115.01</ele>
        <time>2012-08-19T18:00:12Z</time>
      </trkpt>
      <trkpt lat="58.6721756402" lon="16.0486775357">
        <ele>114.05</ele>
        <time>2012-08-19T18:00:23Z</time>
      </trkpt>
      <trkpt lat="58.6722893827" lon="16.0491937771">
        <ele>115.98</ele>
        <time>2012-08-19T18:00:35Z</time>
      </trkpt>
      <trkpt lat="58.6723679211" lon="16.0494815279">
        <ele>116.94</ele>
        <time>2012-08-19T18:00:41Z</time>
      </trkpt>
      <trkpt lat="58.6725033727" lon="16.0501979291">
        <ele>117.9</ele>
        <time>2012-08-19T18:00:54Z</time>
      </trkpt>
      <trkpt lat="58.6725229025" lon="16.050711656">
        <ele>116.94</ele>
        <time>2012-08-19T18:01:03Z</time>
      </trkpt>
      <trkpt lat="58.6725199688" lon="16.0511297453">
        <ele>116.94</ele>
        <time>2012-08-19T18:01:11Z</time>
      </trkpt>
      <trkpt lat="58.6725507304" lon="16.0512072779">
        <ele>116.46</ele>
        <time>2012-08-19T18:01:13Z</time>
      </trkpt>
      <trkpt lat="58.6727774609" lon="16.0514959507">
        <ele>116.46</ele>
        <time>2012-08-19T18:01:24Z</time>
      </trkpt>
      <trkpt lat="58.672896903" lon="16.0516759101">
        <ele>118.38</ele>
        <time>2012-08-19T18:01:30Z</time>
      </trkpt>
      <trkpt lat="58.6729537323" lon="16.0518041532">
        <ele>118.38</ele>
        <time>2012-08-19T18:01:33Z</time>
      </trkpt>
      <trkpt lat="58.6730891" lon="16.0519567039">
        <ele>118.86</ele>
        <time>2012-08-19T18:01:41Z</time>
      </trkpt>
      <trkpt lat="58.6731100548" lon="16.0520377569">
        <ele>119.34</ele>
        <time>2012-08-19T18:01:43Z</time>
      </trkpt>
      <trkpt lat="58.6731402297" lon="16.0521947499">
        <ele>120.3</ele>
        <time>2012-08-19T18:01:47Z</time>
      </trkpt>
      <trkpt lat="58.6731502879" lon="16.0523717757">
        <ele>121.26</ele>
        <time>2012-08-19T18:01:51Z</time>
      </trkpt>
      <trkpt lat="58.673184989" lon="16.0529390629">
        <ele>123.19</ele>
        <time>2012-08-19T18:02:03Z</time>
      </trkpt>
      <trkpt lat="58.6731899343" lon="16.0534747504">
        <ele>121.26</ele>
        <time>2012-08-19T18:02:13Z</time>
      </trkpt>
      <trkpt lat="58.6732178461" lon="16.0540898982">
        <ele>119.34</ele>
        <time>2012-08-19T18:02:23Z</time>
      </trkpt>
      <trkpt lat="58.6731931195" lon="16.0545176268">
        <ele>117.42</ele>
        <time>2012-08-19T18:02:31Z</time>
      </trkpt>
      <trkpt lat="58.6730447598" lon="16.0549878515">
        <ele>116.94</ele>
        <time>2012-08-19T18:02:41Z</time>
      </trkpt>
      <trkpt lat="58.6729077995" lon="16.0554278176">
        <ele>115.5</ele>
        <time>2012-08-19T18:02:49Z</time>
      </trkpt>
      <trkpt lat="58.672838062" lon="16.0557101201">
        <ele>115.01</ele>
        <time>2012-08-19T18:02:55Z</time>
      </trkpt>
      <trkpt lat="58.6728275008" lon="16.0557990521">
        <ele>114.05</ele>
        <time>2012-08-19T18:02:57Z</time>
      </trkpt>
      <trkpt lat="58.6728320271" lon="16.0558884032">
        <ele>113.57</ele>
        <time>2012-08-19T18:02:59Z</time>
      </trkpt>
      <trkpt lat="58.6728047021" lon="16.0563334823">
        <ele>112.61</ele>
        <time>2012-08-19T18:03:07Z</time>
      </trkpt>
      <trkpt lat="58.6728316918" lon="16.0565409344">
        <ele>112.61</ele>
        <time>2012-08-19T18:03:12Z</time>
      </trkpt>
      <trkpt lat="58.6728609446" lon="16.0566141922">
        <ele>112.61</ele>
        <time>2012-08-19T18:03:15Z</time>
      </trkpt>
      <trkpt lat="58.6729063746" lon="16.0567957442">
        <ele>112.61</ele>
        <time>2012-08-19T18:03:20Z</time>
      </trkpt>
      <trkpt lat="58.6729182769" lon="16.0568410903">
        <ele>112.61</ele>
        <time>2012-08-19T18:03:22Z</time>
      </trkpt>
      <trkpt lat="58.6729923729" lon="16.0569886956">
        <ele>113.57</ele>
        <time>2012-08-19T18:03:25Z</time>
      </trkpt>
      <trkpt lat="58.673049286" lon="16.0571201239">
        <ele>114.05</ele>
        <time>2012-08-19T18:03:28Z</time>
      </trkpt>
      <trkpt lat="58.6731598433" lon="16.0573157575">
        <ele>114.53</ele>
        <time>2012-08-19T18:03:34Z</time>
      </trkpt>
      <trkpt lat="58.6733911838" lon="16.0574731696">
        <ele>115.5</ele>
        <time>2012-08-19T18:03:42Z</time>
      </trkpt>
      <trkpt lat="58.6736239493" lon="16.0577406362">
        <ele>116.94</ele>
        <time>2012-08-19T18:03:52Z</time>
      </trkpt>
      <trkpt lat="58.673844561" lon="16.0577765107">
        <ele>119.34</ele>
        <time>2012-08-19T18:04:02Z</time>
      </trkpt>
      <trkpt lat="58.6741023883" lon="16.0576947033">
        <ele>120.78</ele>
        <time>2012-08-19T18:04:13Z</time>
      </trkpt>
      <trkpt lat="58.674277151" lon="16.0575132351">
        <ele>121.74</ele>
        <time>2012-08-19T18:04:24Z</time>
      </trkpt>
      <trkpt lat="58.6743143667" lon="16.0575136542">
        <ele>122.22</ele>
        <time>2012-08-19T18:04:26Z</time>
      </trkpt>
      <trkpt lat="58.6744775623" lon="16.0575572401">
        <ele>123.19</ele>
        <time>2012-08-19T18:04:32Z</time>
      </trkpt>
      <trkpt lat="58.6747286003" lon="16.0577354394">
        <ele>123.19</ele>
        <time>2012-08-19T18:04:40Z</time>
      </trkpt>
      <trkpt lat="58.6748243216" lon="16.0578145646">
        <ele>123.67</ele>
        <time>2012-08-19T18:04:44Z</time>
      </trkpt>
      <trkpt lat="58.6749759503" lon="16.0579099506">
        <ele>124.15</ele>
        <time>2012-08-19T18:04:50Z</time>
      </trkpt>
      <trkpt lat="58.6750680674" lon="16.0580898263">
        <ele>124.63</ele>
        <time>2012-08-19T18:04:55Z</time>
      </trkpt>
      <trkpt lat="58.6750938836" lon="16.058308091">
        <ele>125.59</ele>
        <time>2012-08-19T18:05:00Z</time>
      </trkpt>
      <trkpt lat="58.6750797182" lon="16.0584390163">
        <ele>125.59</ele>
        <time>2012-08-19T18:05:03Z</time>
      </trkpt>
      <trkpt lat="58.6751047801" lon="16.0588326305">
        <ele>124.63</ele>
        <time>2012-08-19T18:05:12Z</time>
      </trkpt>
      <trkpt lat="58.6752164271" lon="16.059210822">
        <ele>126.55</ele>
        <time>2012-08-19T18:05:21Z</time>
      </trkpt>
      <trkpt lat="58.6754653696" lon="16.059502596">
        <ele>125.59</ele>
        <time>2012-08-19T18:05:32Z</time>
      </trkpt>
      <trkpt lat="58.675518427" lon="16.0595712438">
        <ele>125.11</ele>
        <time>2012-08-19T18:05:34Z</time>
      </trkpt>
      <trkpt lat="58.6756044254" lon="16.0598024167">
        <ele>125.11</ele>
        <time>2012-08-19T18:05:39Z</time>
      </trkpt>
      <trkpt lat="58.6756372824" lon="16.0600464139">
        <ele>125.11</ele>
        <time>2012-08-19T18:05:45Z</time>
      </trkpt>
      <trkpt lat="58.6755730771" lon="16.0607017111">
        <ele>124.63</ele>
        <time>2012-08-19T18:05:56Z</time>
      </trkpt>
      <trkpt lat="58.6755685508" lon="16.0609904677">
        <ele>125.11</ele>
        <time>2012-08-19T18:06:01Z</time>
      </trkpt>
      <trkpt lat="58.6756026652" lon="16.0611189622">
        <ele>124.63</ele>
        <time>2012-08-19T18:06:04Z</time>
      </trkpt>
      <trkpt lat="58.6758355983" lon="16.061125081">
        <ele>124.15</ele>
        <time>2012-08-19T18:06:14Z</time>
      </trkpt>
      <trkpt lat="58.6759284697" lon="16.0610988457">
        <ele>124.15</ele>
        <time>2012-08-19T18:06:19Z</time>
      </trkpt>
      <trkpt lat="58.6763019674" lon="16.0612230655">
        <ele>124.63</ele>
        <time>2012-08-19T18:06:33Z</time>
      </trkpt>
      <trkpt lat="58.6765695177" lon="16.0613964871">
        <ele>125.59</ele>
        <time>2012-08-19T18:06:45Z</time>
      </trkpt>
      <trkpt lat="58.6766404286" lon="16.0614099819">
        <ele>126.55</ele>
        <time>2012-08-19T18:06:48Z</time>
      </trkpt>
      <trkpt lat="58.6769675743" lon="16.0615494568">
        <ele>125.59</ele>
        <time>2012-08-19T18:06:58Z</time>
      </trkpt>
      <trkpt lat="58.6773048621" lon="16.061691111">
        <ele>124.63</ele>
        <time>2012-08-19T18:07:09Z</time>
      </trkpt>
      <trkpt lat="58.6774018407" lon="16.0617419053">
        <ele>124.15</ele>
        <time>2012-08-19T18:07:13Z</time>
      </trkpt>
      <trkpt lat="58.6776947044" lon="16.0618768539">
        <ele>125.59</ele>
        <time>2012-08-19T18:07:25Z</time>
      </trkpt>
      <trkpt lat="58.6779328343" lon="16.0619902611">
        <ele>124.15</ele>
        <time>2012-08-19T18:07:33Z</time>
      </trkpt>
      <trkpt lat="58.6779963691" lon="16.0619183443">
        <ele>125.11</ele>
        <time>2012-08-19T18:07:37Z</time>
      </trkpt>
      <trkpt lat="58.6780049186" lon="16.0617111437">
        <ele>125.11</ele>
        <time>2012-08-19T18:07:43Z</time>
      </trkpt>
      <trkpt lat="58.6779876519" lon="16.0613992531">
        <ele>125.11</ele>
        <time>2012-08-19T18:07:49Z</time>
      </trkpt>
      <trkpt lat="58.677939456" lon="16.0608371627">
        <ele>125.59</ele>
        <time>2012-08-19T18:08:00Z</time>
      </trkpt>
      <trkpt lat="58.6778854765" lon="16.0602791794">
        <ele>126.55</ele>
        <time>2012-08-19T18:08:10Z</time>
      </trkpt>
      <trkpt lat="58.6778068542" lon="16.05973511">
        <ele>126.55</ele>
        <time>2012-08-19T18:08:21Z</time>
      </trkpt>
      <trkpt lat="58.6777238734" lon="16.0594326071">
        <ele>127.03</ele>
        <time>2012-08-19T18:08:28Z</time>
      </trkpt>
      <trkpt lat="58.677656902" lon="16.0592014343">
        <ele>127.03</ele>
        <time>2012-08-19T18:08:33Z</time>
      </trkpt>
      <trkpt lat="58.6775777768" lon="16.0585684329">
        <ele>124.15</ele>
        <time>2012-08-19T18:08:44Z</time>
      </trkpt>
      <trkpt lat="58.6776661221" lon="16.0580271296">
        <ele>123.67</ele>
        <time>2012-08-19T18:08:54Z</time>
      </trkpt>
      <trkpt lat="58.6777877435" lon="16.0575878341">
        <ele>125.59</ele>
        <time>2012-08-19T18:09:04Z</time>
      </trkpt>
      <trkpt lat="58.6778831296" lon="16.0571599379">
        <ele>126.07</ele>
        <time>2012-08-19T18:09:14Z</time>
      </trkpt>
      <trkpt lat="58.678022353" lon="16.0566224065">
        <ele>126.55</ele>
        <time>2012-08-19T18:09:25Z</time>
      </trkpt>
      <trkpt lat="58.6781819444" lon="16.0562401917">
        <ele>126.55</ele>
        <time>2012-08-19T18:09:34Z</time>
      </trkpt>
      <trkpt lat="58.6783468165" lon="16.0558247007">
        <ele>127.03</ele>
        <time>2012-08-19T18:09:44Z</time>
      </trkpt>
      <trkpt lat="58.6785024684" lon="16.055492945">
        <ele>127.99</ele>
        <time>2012-08-19T18:09:53Z</time>
      </trkpt>
      <trkpt lat="58.6785180587" lon="16.0550831538">
        <ele>127.51</ele>
        <time>2012-08-19T18:10:01Z</time>
      </trkpt>
      <trkpt lat="58.6785587948" lon="16.0549058765">
        <ele>127.99</ele>
        <time>2012-08-19T18:10:05Z</time>
      </trkpt>
      <trkpt lat="58.678635573" lon="16.0545474663">
        <ele>127.99</ele>
        <time>2012-08-19T18:10:12Z</time>
      </trkpt>
      <trkpt lat="58.6787077412" lon="16.0541789979">
        <ele>128.95</ele>
        <time>2012-08-19T18:10:20Z</time>
      </trkpt>
      <trkpt lat="58.6788688414" lon="16.053803321">
        <ele>128.95</ele>
        <time>2012-08-19T18:10:29Z</time>
      </trkpt>
      <trkpt lat="58.6789766327" lon="16.0535753332">
        <ele>129.43</ele>
        <time>2012-08-19T18:10:35Z</time>
      </trkpt>
      <trkpt lat="58.6790482141" lon="16.0533865727">
        <ele>129.92</ele>
        <time>2012-08-19T18:10:40Z</time>
      </trkpt>
      <trkpt lat="58.679194646" lon="16.0531422403">
        <ele>129.43</ele>
        <time>2012-08-19T18:10:47Z</time>
      </trkpt>
      <trkpt lat="58.6792717595" lon="16.0529769491">
        <ele>130.88</ele>
        <time>2012-08-19T18:10:51Z</time>
      </trkpt>
      <trkpt lat="58.6793565005" lon="16.0528631229">
        <ele>129.92</ele>
        <time>2012-08-19T18:10:55Z</time>
      </trkpt>
      <trkpt lat="58.6794018466" lon="16.0525873583">
        <ele>129.92</ele>
        <time>2012-08-19T18:11:01Z</time>
      </trkpt>
      <trkpt lat="58.6793844961" lon="16.0524992645">
        <ele>129.92</ele>
        <time>2012-08-19T18:11:03Z</time>
      </trkpt>
      <trkpt lat="58.6793187819" lon="16.0520341527">
        <ele>128.95</ele>
        <time>2012-08-19T18:11:12Z</time>
      </trkpt>
      <trkpt lat="58.6793158483" lon="16.0519788321">
        <ele>128.47</ele>
        <time>2012-08-19T18:11:13Z</time>
      </trkpt>
      <trkpt lat="58.6792858411" lon="16.0518100206">
        <ele>128.47</ele>
        <time>2012-08-19T18:11:16Z</time>
      </trkpt>
      <trkpt lat="58.6792677362" lon="16.0515008122">
        <ele>127.99</ele>
        <time>2012-08-19T18:11:22Z</time>
      </trkpt>
      <trkpt lat="58.6792564206" lon="16.0514047556">
        <ele>129.43</ele>
        <time>2012-08-19T18:11:24Z</time>
      </trkpt>
      <trkpt lat="58.6793407425" lon="16.0509179346">
        <ele>128.47</ele>
        <time>2012-08-19T18:11:33Z</time>
      </trkpt>
      <trkpt lat="58.6794061214" lon="16.050632447">
        <ele>128.47</ele>
        <time>2012-08-19T18:11:39Z</time>
      </trkpt>
      <trkpt lat="58.6793836579" lon="16.0501074884">
        <ele>126.55</ele>
        <time>2012-08-19T18:11:49Z</time>
      </trkpt>
      <trkpt lat="58.6792096496" lon="16.0497716255">
        <ele>125.11</ele>
        <time>2012-08-19T18:11:58Z</time>
      </trkpt>
      <trkpt lat="58.6789955758" lon="16.0498510022">
        <ele>124.63</ele>
        <time>2012-08-19T18:12:07Z</time>
      </trkpt>
      <trkpt lat="58.6789571866" lon="16.0498859547">
        <ele>127.03</ele>
        <time>2012-08-19T18:12:09Z</time>
      </trkpt>
      <trkpt lat="58.6788113415" lon="16.0499601346">
        <ele>127.99</ele>
        <time>2012-08-19T18:12:16Z</time>
      </trkpt>
      <trkpt lat="58.6787063163" lon="16.049953429">
        <ele>128.47</ele>
        <time>2012-08-19T18:12:20Z</time>
      </trkpt>
      <trkpt lat="58.6785124429" lon="16.0500367451">
        <ele>128.95</ele>
        <time>2012-08-19T18:12:27Z</time>
      </trkpt>
      <trkpt lat="58.6782236863" lon="16.0500110965">
        <ele>129.43</ele>
        <time>2012-08-19T18:12:38Z</time>
      </trkpt>
      <trkpt lat="58.6781939305" lon="16.0499825142">
        <ele>128.95</ele>
        <time>2012-08-19T18:12:39Z</time>
      </trkpt>
      <trkpt lat="58.677961668" lon="16.0498665087">
        <ele>125.59</ele>
        <time>2012-08-19T18:12:48Z</time>
      </trkpt>
      <trkpt lat="58.6778752506" lon="16.0498940013">
        <ele>124.15</ele>
        <time>2012-08-19T18:12:51Z</time>
      </trkpt>
      <trkpt lat="58.6777181737" lon="16.0497942567">
        <ele>121.74</ele>
        <time>2012-08-19T18:12:58Z</time>
      </trkpt>
      <trkpt lat="58.6776425689" lon="16.0496210027">
        <ele>120.3</ele>
        <time>2012-08-19T18:13:02Z</time>
      </trkpt>
      <trkpt lat="58.6775932834" lon="16.0494035762">
        <ele>118.86</ele>
        <time>2012-08-19T18:13:06Z</time>
      </trkpt>
      <trkpt lat="58.6774217896" lon="16.0490749218">
        <ele>116.94</ele>
        <time>2012-08-19T18:13:15Z</time>
      </trkpt>
      <trkpt lat="58.6773212068" lon="16.0490110517">
        <ele>115.01</ele>
        <time>2012-08-19T18:13:20Z</time>
      </trkpt>
      <trkpt lat="58.6772671435" lon="16.0489174258">
        <ele>115.01</ele>
        <time>2012-08-19T18:13:24Z</time>
      </trkpt>
      <trkpt lat="58.6771303508" lon="16.0487435013">
        <ele>115.98</ele>
        <time>2012-08-19T18:13:30Z</time>
      </trkpt>
      <trkpt lat="58.6770537402" lon="16.0484332871">
        <ele>116.94</ele>
        <time>2012-08-19T18:13:37Z</time>
      </trkpt>
      <trkpt lat="58.6768650636" lon="16.0480082408">
        <ele>115.98</ele>
        <time>2012-08-19T18:13:47Z</time>
      </trkpt>
      <trkpt lat="58.6767998524" lon="16.0478518344">
        <ele>117.42</ele>
        <time>2012-08-19T18:13:51Z</time>
      </trkpt>
      <trkpt lat="58.6766566895" lon="16.04741388">
        <ele>115.5</ele>
        <time>2012-08-19T18:14:01Z</time>
      </trkpt>
      <trkpt lat="58.6764984392" lon="16.0472875647">
        <ele>115.01</ele>
        <time>2012-08-19T18:14:07Z</time>
      </trkpt>
      <trkpt lat="58.676394755" lon="16.0471247882">
        <ele>114.05</ele>
        <time>2012-08-19T18:14:12Z</time>
      </trkpt>
      <trkpt lat="58.6763250176" lon="16.0470580682">
        <ele>113.09</ele>
        <time>2012-08-19T18:14:15Z</time>
      </trkpt>
      <trkpt lat="58.6762158014" lon="16.0467314254">
        <ele>111.65</ele>
        <time>2012-08-19T18:14:23Z</time>
      </trkpt>
      <trkpt lat="58.676130306" lon="16.0466836486">
        <ele>111.65</ele>
        <time>2012-08-19T18:14:26Z</time>
      </trkpt>
      <trkpt lat="58.6760547012" lon="16.0466291662">
        <ele>110.21</ele>
        <time>2012-08-19T18:14:29Z</time>
      </trkpt>
      <trkpt lat="58.6759249493" lon="16.0465385579">
        <ele>109.73</ele>
        <time>2012-08-19T18:14:34Z</time>
      </trkpt>
      <trkpt lat="58.6758570559" lon="16.0462413356">
        <ele>108.77</ele>
        <time>2012-08-19T18:14:40Z</time>
      </trkpt>
      <trkpt lat="58.6757449899" lon="16.0458924808">
        <ele>108.29</ele>
        <time>2012-08-19T18:14:47Z</time>
      </trkpt>
      <trkpt lat="58.6755416449" lon="16.0455049854">
        <ele>108.77</ele>
        <time>2012-08-19T18:14:58Z</time>
      </trkpt>
      <trkpt lat="58.6753133219" lon="16.0452256165">
        <ele>108.77</ele>
        <time>2012-08-19T18:15:09Z</time>
      </trkpt>
      <trkpt lat="58.6753243022" lon="16.0447853152">
        <ele>105.88</ele>
        <time>2012-08-19T18:15:18Z</time>
      </trkpt>
      <trkpt lat="58.6753260624" lon="16.0447147395">
        <ele>104.92</ele>
        <time>2012-08-19T18:15:20Z</time>
      </trkpt>
      <trkpt lat="58.6753255595" lon="16.0446340218">
        <ele>105.88</ele>
        <time>2012-08-19T18:15:26Z</time>
      </trkpt>
      <trkpt lat="58.6753027607" lon="16.0444849916">
        <ele>106.36</ele>
        <time>2012-08-19T18:15:31Z</time>
      </trkpt>
      <trkpt lat="58.6752535589" lon="16.0442787129">
        <ele>108.77</ele>
        <time>2012-08-19T18:15:36Z</time>
      </trkpt>
      <trkpt lat="58.6752193607" lon="16.0442145914">
        <ele>109.73</ele>
        <time>2012-08-19T18:15:38Z</time>
      </trkpt>
      <trkpt lat="58.6750583444" lon="16.044262955">
        <ele>108.77</ele>
        <time>2012-08-19T18:15:44Z</time>
      </trkpt>
      <trkpt lat="58.6748296022" lon="16.0444713291">
        <ele>106.84</ele>
        <time>2012-08-19T18:15:53Z</time>
      </trkpt>
      <trkpt lat="58.6746359803" lon="16.0445285775">
        <ele>108.77</ele>
        <time>2012-08-19T18:16:01Z</time>
      </trkpt>
      <trkpt lat="58.6743444577" lon="16.0445856582">
        <ele>109.25</ele>
        <time>2012-08-19T18:16:12Z</time>
      </trkpt>
      <trkpt lat="58.6741747241" lon="16.0446453374">
        <ele>107.81</ele>
        <time>2012-08-19T18:16:18Z</time>
      </trkpt>
      <trkpt lat="58.674030304" lon="16.0447006579">
        <ele>108.77</ele>
        <time>2012-08-19T18:16:24Z</time>
      </trkpt>
      <trkpt lat="58.6738314852" lon="16.0447314195">
        <ele>110.21</ele>
        <time>2012-08-19T18:16:32Z</time>
      </trkpt>
      <trkpt lat="58.6736024916" lon="16.044857651">
        <ele>109.25</ele>
        <time>2012-08-19T18:16:41Z</time>
      </trkpt>
      <trkpt lat="58.67344575" lon="16.0448527057">
        <ele>109.25</ele>
        <time>2012-08-19T18:16:47Z</time>
      </trkpt>
      <trkpt lat="58.6733911838" lon="16.0448753368">
        <ele>109.25</ele>
        <time>2012-08-19T18:16:49Z</time>
      </trkpt>
      <trkpt lat="58.6731533892" lon="16.0449401289">
        <ele>109.73</ele>
        <time>2012-08-19T18:16:58Z</time>
      </trkpt>
      <trkpt lat="58.6730634514" lon="16.0449244548">
        <ele>110.21</ele>
        <time>2012-08-19T18:17:02Z</time>
      </trkpt>
      <trkpt lat="58.6730165128" lon="16.0449293163">
        <ele>110.69</ele>
        <time>2012-08-19T18:17:04Z</time>
      </trkpt>
      <trkpt lat="58.672852898" lon="16.0448485985">
        <ele>113.09</ele>
        <time>2012-08-19T18:17:11Z</time>
      </trkpt>
      <trkpt lat="58.6727657262" lon="16.0447977204">
        <ele>114.05</ele>
        <time>2012-08-19T18:17:15Z</time>
      </trkpt>
      <trkpt lat="58.6726301908" lon="16.0446502827">
        <ele>116.46</ele>
        <time>2012-08-19T18:17:23Z</time>
      </trkpt>
      <trkpt lat="58.6725441087" lon="16.0442932975">
        <ele>116.94</ele>
        <time>2012-08-19T18:17:32Z</time>
      </trkpt>
      <trkpt lat="58.6724727787" lon="16.0440348834">
        <ele>115.98</ele>
        <time>2012-08-19T18:17:38Z</time>
      </trkpt>
      <trkpt lat="58.6722879577" lon="16.0439894535">
        <ele>115.5</ele>
        <time>2012-08-19T18:17:45Z</time>
      </trkpt>
      <trkpt lat="58.6720496602" lon="16.0440746974">
        <ele>114.05</ele>
        <time>2012-08-19T18:17:54Z</time>
      </trkpt>
      <trkpt lat="58.6720006261" lon="16.0440907069">
        <ele>113.09</ele>
        <time>2012-08-19T18:17:56Z</time>
      </trkpt>
      <trkpt lat="58.671708433" lon="16.0440006852">
        <ele>112.13</ele>
        <time>2012-08-19T18:18:06Z</time>
      </trkpt>
      <trkpt lat="58.6716211773" lon="16.0439171176">
        <ele>111.65</ele>
        <time>2012-08-19T18:18:09Z</time>
      </trkpt>
      <trkpt lat="58.6714619212" lon="16.0437647346">
        <ele>113.09</ele>
        <time>2012-08-19T18:18:17Z</time>
      </trkpt>
      <trkpt lat="58.6714454088" lon="16.0436908901">
        <ele>112.61</ele>
        <time>2012-08-19T18:18:19Z</time>
      </trkpt>
      <trkpt lat="58.6714562215" lon="16.043601539">
        <ele>112.13</ele>
        <time>2012-08-19T18:18:21Z</time>
      </trkpt>
      <trkpt lat="58.6714692973" lon="16.0435149539">
        <ele>112.61</ele>
        <time>2012-08-19T18:18:23Z</time>
      </trkpt>
      <trkpt lat="58.6714882404" lon="16.0432267003">
        <ele>114.53</ele>
        <time>2012-08-19T18:18:30Z</time>
      </trkpt>
      <trkpt lat="58.6715015676" lon="16.0427638516">
        <ele>115.01</ele>
        <time>2012-08-19T18:18:39Z</time>
      </trkpt>
      <trkpt lat="58.6714427266" lon="16.0425724089">
        <ele>115.5</ele>
        <time>2012-08-19T18:18:44Z</time>
      </trkpt>
      <trkpt lat="58.6713729892" lon="16.0424677189">
        <ele>115.98</ele>
        <time>2012-08-19T18:18:48Z</time>
      </trkpt>
      <trkpt lat="58.6712034233" lon="16.0421937145">
        <ele>116.46</ele>
        <time>2012-08-19T18:18:57Z</time>
      </trkpt>
      <trkpt lat="58.6709829792" lon="16.0420155153">
        <ele>116.46</ele>
        <time>2012-08-19T18:19:06Z</time>
      </trkpt>
      <trkpt lat="58.670783909" lon="16.0419763718">
        <ele>115.01</ele>
        <time>2012-08-19T18:19:13Z</time>
      </trkpt>
      <trkpt lat="58.6705807317" lon="16.0420006793">
        <ele>113.09</ele>
        <time>2012-08-19T18:19:21Z</time>
      </trkpt>
      <trkpt lat="58.6705516465" lon="16.0419926327">
        <ele>113.57</ele>
        <time>2012-08-19T18:19:22Z</time>
      </trkpt>
      <trkpt lat="58.6703857686" lon="16.0419457778">
        <ele>114.05</ele>
        <time>2012-08-19T18:19:28Z</time>
      </trkpt>
      <trkpt lat="58.6701815855" lon="16.0420214664">
        <ele>112.61</ele>
        <time>2012-08-19T18:19:36Z</time>
      </trkpt>
      <trkpt lat="58.6699230876" lon="16.0422688164">
        <ele>110.69</ele>
        <time>2012-08-19T18:19:46Z</time>
      </trkpt>
      <trkpt lat="58.6695907451" lon="16.04248574">
        <ele>107.32</ele>
        <time>2012-08-19T18:19:58Z</time>
      </trkpt>
      <trkpt lat="58.6692113802" lon="16.0426579043">
        <ele>104.44</ele>
        <time>2012-08-19T18:20:10Z</time>
      </trkpt>
      <trkpt lat="58.6691798642" lon="16.0426610056">
        <ele>104.44</ele>
        <time>2012-08-19T18:20:11Z</time>
      </trkpt>
      <trkpt lat="58.6688657943" lon="16.0425948724">
        <ele>102.52</ele>
        <time>2012-08-19T18:20:21Z</time>
      </trkpt>
      <trkpt lat="58.6686333641" lon="16.0423078761">
        <ele>101.56</ele>
        <time>2012-08-19T18:20:31Z</time>
      </trkpt>
      <trkpt lat="58.6684912071" lon="16.0420504678">
        <ele>100.11</ele>
        <time>2012-08-19T18:20:39Z</time>
      </trkpt>
      <trkpt lat="58.6682428513" lon="16.0417269263">
        <ele>98.67</ele>
        <time>2012-08-19T18:20:47Z</time>
      </trkpt>
      <trkpt lat="58.6680657417" lon="16.0413268581">
        <ele>97.23</ele>
        <time>2012-08-19T18:20:57Z</time>
      </trkpt>
      <trkpt lat="58.6679921485" lon="16.041079089">
        <ele>96.75</ele>
        <time>2012-08-19T18:21:02Z</time>
      </trkpt>
      <trkpt lat="58.6679439526" lon="16.0408354271">
        <ele>95.79</ele>
        <time>2012-08-19T18:21:07Z</time>
      </trkpt>
      <trkpt lat="58.6678252649" lon="16.0407302342">
        <ele>96.27</ele>
        <time>2012-08-19T18:21:14Z</time>
      </trkpt>
      <trkpt lat="58.6677392665" lon="16.0400831513">
        <ele>94.35</ele>
        <time>2012-08-19T18:21:25Z</time>
      </trkpt>
      <trkpt lat="58.6676914897" lon="16.0399050359">
        <ele>92.9</ele>
        <time>2012-08-19T18:21:28Z</time>
      </trkpt>
      <trkpt lat="58.6676138733" lon="16.0396497231">
        <ele>91.46</ele>
        <time>2012-08-19T18:21:33Z</time>
      </trkpt>
      <trkpt lat="58.6675275397" lon="16.0392640717">
        <ele>88.1</ele>
        <time>2012-08-19T18:21:40Z</time>
      </trkpt>
      <trkpt lat="58.6675152183" lon="16.0392141994">
        <ele>87.62</ele>
        <time>2012-08-19T18:21:41Z</time>
      </trkpt>
      <trkpt lat="58.6673873942" lon="16.0388381872">
        <ele>84.73</ele>
        <time>2012-08-19T18:21:48Z</time>
      </trkpt>
      <trkpt lat="58.6673005577" lon="16.0387450643">
        <ele>83.29</ele>
        <time>2012-08-19T18:21:51Z</time>
      </trkpt>
      <trkpt lat="58.6672049202" lon="16.038723439">
        <ele>80.41</ele>
        <time>2012-08-19T18:21:54Z</time>
      </trkpt>
      <trkpt lat="58.6671407986" lon="16.0386263765">
        <ele>78.48</ele>
        <time>2012-08-19T18:21:58Z</time>
      </trkpt>
      <trkpt lat="58.6669734959" lon="16.0380320996">
        <ele>77.04</ele>
        <time>2012-08-19T18:22:09Z</time>
      </trkpt>
      <trkpt lat="58.6669134814" lon="16.0376371443">
        <ele>77.04</ele>
        <time>2012-08-19T18:22:17Z</time>
      </trkpt>
      <trkpt lat="58.6668568198" lon="16.0372678377">
        <ele>78.97</ele>
        <time>2012-08-19T18:22:25Z</time>
      </trkpt>
      <trkpt lat="58.6668797024" lon="16.0368306376">
        <ele>79.93</ele>
        <time>2012-08-19T18:22:34Z</time>
      </trkpt>
      <trkpt lat="58.667052621" lon="16.0361988936">
        <ele>82.33</ele>
        <time>2012-08-19T18:22:48Z</time>
      </trkpt>
      <trkpt lat="58.667075336" lon="16.0356486216">
        <ele>83.77</ele>
        <time>2012-08-19T18:22:59Z</time>
      </trkpt>
      <trkpt lat="58.6670309957" lon="16.0352768842">
        <ele>84.73</ele>
        <time>2012-08-19T18:23:06Z</time>
      </trkpt>
      <trkpt lat="58.6669828836" lon="16.0348843597">
        <ele>84.25</ele>
        <time>2012-08-19T18:23:13Z</time>
      </trkpt>
      <trkpt lat="58.6669682991" lon="16.0346050747">
        <ele>83.77</ele>
        <time>2012-08-19T18:23:19Z</time>
      </trkpt>
      <trkpt lat="58.6669134814" lon="16.03430341">
        <ele>84.73</ele>
        <time>2012-08-19T18:23:26Z</time>
      </trkpt>
      <trkpt lat="58.6668582447" lon="16.0341658629">
        <ele>84.73</ele>
        <time>2012-08-19T18:23:29Z</time>
      </trkpt>
      <trkpt lat="58.6667913571" lon="16.0340390448">
        <ele>84.73</ele>
        <time>2012-08-19T18:23:32Z</time>
      </trkpt>
      <trkpt lat="58.6667058617" lon="16.0339270625">
        <ele>85.21</ele>
        <time>2012-08-19T18:23:36Z</time>
      </trkpt>
      <trkpt lat="58.6663188692" lon="16.03379949">
        <ele>82.33</ele>
        <time>2012-08-19T18:23:49Z</time>
      </trkpt>
      <trkpt lat="58.6660339683" lon="16.0336499568">
        <ele>80.89</ele>
        <time>2012-08-19T18:24:00Z</time>
      </trkpt>
      <trkpt lat="58.6657661665" lon="16.0335331969">
        <ele>79.93</ele>
        <time>2012-08-19T18:24:09Z</time>
      </trkpt>
      <trkpt lat="58.6654776614" lon="16.0335234739">
        <ele>78</ele>
        <time>2012-08-19T18:24:20Z</time>
      </trkpt>
      <trkpt lat="58.665206423" lon="16.0336394794">
        <ele>77.52</ele>
        <time>2012-08-19T18:24:31Z</time>
      </trkpt>
      <trkpt lat="58.6649853084" lon="16.033769818">
        <ele>78.97</ele>
        <time>2012-08-19T18:24:41Z</time>
      </trkpt>
      <trkpt lat="58.6648465879" lon="16.0338505358">
        <ele>78.97</ele>
        <time>2012-08-19T18:24:47Z</time>
      </trkpt>
      <trkpt lat="58.6648019124" lon="16.0338925291">
        <ele>79.45</ele>
        <time>2012-08-19T18:24:49Z</time>
      </trkpt>
      <trkpt lat="58.6644756049" lon="16.0340977181">
        <ele>80.41</ele>
        <time>2012-08-19T18:25:01Z</time>
      </trkpt>
      <trkpt lat="58.6642213818" lon="16.0342755821">
        <ele>81.85</ele>
        <time>2012-08-19T18:25:11Z</time>
      </trkpt>
      <trkpt lat="58.6640677415" lon="16.0343319084">
        <ele>81.85</ele>
        <time>2012-08-19T18:25:17Z</time>
      </trkpt>
      <trkpt lat="58.6639375705" lon="16.0344283003">
        <ele>81.37</ele>
        <time>2012-08-19T18:25:22Z</time>
      </trkpt>
      <trkpt lat="58.6636405159" lon="16.0347098485">
        <ele>80.89</ele>
        <time>2012-08-19T18:25:34Z</time>
      </trkpt>
      <trkpt lat="58.6635557748" lon="16.0347725451">
        <ele>79.93</ele>
        <time>2012-08-19T18:25:37Z</time>
      </trkpt>
      <trkpt lat="58.6632978637" lon="16.0349827632">
        <ele>79.45</ele>
        <time>2012-08-19T18:25:46Z</time>
      </trkpt>
      <trkpt lat="58.663092507" lon="16.0349784046">
        <ele>80.41</ele>
        <time>2012-08-19T18:25:54Z</time>
      </trkpt>
      <trkpt lat="58.6630065925" lon="16.0349612217">
        <ele>80.41</ele>
        <time>2012-08-19T18:25:57Z</time>
      </trkpt>
      <trkpt lat="58.6629431415" lon="16.034956025">
        <ele>80.41</ele>
        <time>2012-08-19T18:25:59Z</time>
      </trkpt>
      <trkpt lat="58.6628381163" lon="16.0349462181">
        <ele>80.41</ele>
        <time>2012-08-19T18:26:03Z</time>
      </trkpt>
      <trkpt lat="58.6626347713" lon="16.034831889">
        <ele>79.93</ele>
        <time>2012-08-19T18:26:10Z</time>
      </trkpt>
      <trkpt lat="58.6624558177" lon="16.0346261971">
        <ele>80.41</ele>
        <time>2012-08-19T18:26:18Z</time>
      </trkpt>
      <trkpt lat="58.662422793" lon="16.0345510952">
        <ele>80.41</ele>
        <time>2012-08-19T18:26:20Z</time>
      </trkpt>
      <trkpt lat="58.6624038499" lon="16.0342800245">
        <ele>80.41</ele>
        <time>2012-08-19T18:26:27Z</time>
      </trkpt>
      <trkpt lat="58.662474677" lon="16.0338894278">
        <ele>80.89</ele>
        <time>2012-08-19T18:26:36Z</time>
      </trkpt>
      <trkpt lat="58.6625692248" lon="16.0334285069">
        <ele>82.81</ele>
        <time>2012-08-19T18:26:46Z</time>
      </trkpt>
      <trkpt lat="58.662591856" lon="16.0333342943">
        <ele>82.81</ele>
        <time>2012-08-19T18:26:48Z</time>
      </trkpt>
      <trkpt lat="58.6626768485" lon="16.032983847">
        <ele>83.29</ele>
        <time>2012-08-19T18:26:56Z</time>
      </trkpt>
      <trkpt lat="58.6626618449" lon="16.0326690227">
        <ele>84.25</ele>
        <time>2012-08-19T18:27:03Z</time>
      </trkpt>
      <trkpt lat="58.6626299936" lon="16.0323790088">
        <ele>86.18</ele>
        <time>2012-08-19T18:27:10Z</time>
      </trkpt>
      <trkpt lat="58.6625728291" lon="16.0320538748">
        <ele>88.58</ele>
        <time>2012-08-19T18:27:18Z</time>
      </trkpt>
      <trkpt lat="58.6625519581" lon="16.031927811">
        <ele>89.54</ele>
        <time>2012-08-19T18:27:21Z</time>
      </trkpt>
      <trkpt lat="58.6625912692" lon="16.0314296745">
        <ele>90.98</ele>
        <time>2012-08-19T18:27:32Z</time>
      </trkpt>
      <trkpt lat="58.6626898404" lon="16.0310182907">
        <ele>91.94</ele>
        <time>2012-08-19T18:27:42Z</time>
      </trkpt>
      <trkpt lat="58.6627036706" lon="16.0308017023">
        <ele>92.42</ele>
        <time>2012-08-19T18:27:47Z</time>
      </trkpt>
      <trkpt lat="58.6626838055" lon="16.0307215713">
        <ele>93.39</ele>
        <time>2012-08-19T18:27:49Z</time>
      </trkpt>
      <trkpt lat="58.6625125632" lon="16.030499367">
        <ele>92.9</ele>
        <time>2012-08-19T18:27:56Z</time>
      </trkpt>
      <trkpt lat="58.6624248046" lon="16.03012654">
        <ele>93.39</ele>
        <time>2012-08-19T18:28:04Z</time>
      </trkpt>
      <trkpt lat="58.6624761857" lon="16.0298869014">
        <ele>93.39</ele>
        <time>2012-08-19T18:28:09Z</time>
      </trkpt>
      <trkpt lat="58.6625424866" lon="16.0293932911">
        <ele>94.35</ele>
        <time>2012-08-19T18:28:19Z</time>
      </trkpt>
      <trkpt lat="58.6625432409" lon="16.029165471">
        <ele>95.31</ele>
        <time>2012-08-19T18:28:24Z</time>
      </trkpt>
      <trkpt lat="58.6625077017" lon="16.0290443525">
        <ele>95.79</ele>
        <time>2012-08-19T18:28:28Z</time>
      </trkpt>
      <trkpt lat="58.6624386348" lon="16.0289364774">
        <ele>97.71</ele>
        <time>2012-08-19T18:28:32Z</time>
      </trkpt>
      <trkpt lat="58.6624021735" lon="16.0288812406">
        <ele>98.19</ele>
        <time>2012-08-19T18:28:34Z</time>
      </trkpt>
      <trkpt lat="58.6623251438" lon="16.0287772212">
        <ele>100.11</ele>
        <time>2012-08-19T18:28:38Z</time>
      </trkpt>
      <trkpt lat="58.6622138321" lon="16.0286341421">
        <ele>103.48</ele>
        <time>2012-08-19T18:28:44Z</time>
      </trkpt>
      <trkpt lat="58.6620776262" lon="16.02855267">
        <ele>106.36</ele>
        <time>2012-08-19T18:28:51Z</time>
      </trkpt>
      <trkpt lat="58.661962878" lon="16.0285357386">
        <ele>108.77</ele>
        <time>2012-08-19T18:28:57Z</time>
      </trkpt>
      <trkpt lat="58.6618488003" lon="16.0283616465">
        <ele>108.77</ele>
        <time>2012-08-19T18:29:03Z</time>
      </trkpt>
      <trkpt lat="58.6617492232" lon="16.0283323936">
        <ele>108.77</ele>
        <time>2012-08-19T18:29:08Z</time>
      </trkpt>
      <trkpt lat="58.6616164539" lon="16.0287872795">
        <ele>110.21</ele>
        <time>2012-08-19T18:29:21Z</time>
      </trkpt>
      <trkpt lat="58.6615068186" lon="16.0290359706">
        <ele>111.17</ele>
        <time>2012-08-19T18:29:29Z</time>
      </trkpt>
      <trkpt lat="58.6614494864" lon="16.029210398">
        <ele>111.65</ele>
        <time>2012-08-19T18:29:34Z</time>
      </trkpt>
      <trkpt lat="58.6613955908" lon="16.0293634515">
        <ele>112.61</ele>
        <time>2012-08-19T18:29:38Z</time>
      </trkpt>
      <trkpt lat="58.6612473149" lon="16.0296892561">
        <ele>115.5</ele>
        <time>2012-08-19T18:29:47Z</time>
      </trkpt>
      <trkpt lat="58.6610892322" lon="16.0301805194">
        <ele>115.98</ele>
        <time>2012-08-19T18:29:59Z</time>
      </trkpt>
      <trkpt lat="58.66103651" lon="16.0304677673">
        <ele>115.5</ele>
        <time>2012-08-19T18:30:05Z</time>
      </trkpt>
      <trkpt lat="58.6609106977" lon="16.0308485571">
        <ele>117.9</ele>
        <time>2012-08-19T18:30:15Z</time>
      </trkpt>
      <trkpt lat="58.6606842186" lon="16.0311257467">
        <ele>117.42</ele>
        <time>2012-08-19T18:30:25Z</time>
      </trkpt>
      <trkpt lat="58.6604133993" lon="16.0313627869">
        <ele>116.46</ele>
        <time>2012-08-19T18:30:36Z</time>
      </trkpt>
      <trkpt lat="58.6603683885" lon="16.0314375535">
        <ele>115.98</ele>
        <time>2012-08-19T18:30:38Z</time>
      </trkpt>
      <trkpt lat="58.660214413" lon="16.0315331072">
        <ele>116.46</ele>
        <time>2012-08-19T18:30:43Z</time>
      </trkpt>
      <trkpt lat="58.6601560749" lon="16.0316901002">
        <ele>115.98</ele>
        <time>2012-08-19T18:30:47Z</time>
      </trkpt>
      <trkpt lat="58.6600380577" lon="16.0320796072">
        <ele>116.94</ele>
        <time>2012-08-19T18:30:56Z</time>
      </trkpt>
      <trkpt lat="58.6599917058" lon="16.032229308">
        <ele>117.42</ele>
        <time>2012-08-19T18:30:59Z</time>
      </trkpt>
      <trkpt lat="58.6599456053" lon="16.0323997959">
        <ele>119.34</ele>
        <time>2012-08-19T18:31:03Z</time>
      </trkpt>
      <trkpt lat="58.6599370558" lon="16.032448411">
        <ele>119.34</ele>
        <time>2012-08-19T18:31:04Z</time>
      </trkpt>
      <trkpt lat="58.6599145085" lon="16.0325878859">
        <ele>119.82</ele>
        <time>2012-08-19T18:31:07Z</time>
      </trkpt>
      <trkpt lat="58.6597677413" lon="16.0329394229">
        <ele>116.46</ele>
        <time>2012-08-19T18:31:18Z</time>
      </trkpt>
      <trkpt lat="58.6597523186" lon="16.033020895">
        <ele>115.98</ele>
        <time>2012-08-19T18:31:20Z</time>
      </trkpt>
      <trkpt lat="58.6597100738" lon="16.0331744514">
        <ele>115.5</ele>
        <time>2012-08-19T18:31:23Z</time>
      </trkpt>
      <trkpt lat="58.6595933139" lon="16.0335265752">
        <ele>116.46</ele>
        <time>2012-08-19T18:31:32Z</time>
      </trkpt>
      <trkpt lat="58.6595550086" lon="16.0337507073">
        <ele>117.42</ele>
        <time>2012-08-19T18:31:37Z</time>
      </trkpt>
      <trkpt lat="58.6594517436" lon="16.0341003165">
        <ele>115.01</ele>
        <time>2012-08-19T18:31:46Z</time>
      </trkpt>
      <trkpt lat="58.6594315432" lon="16.0342098679">
        <ele>115.01</ele>
        <time>2012-08-19T18:31:49Z</time>
      </trkpt>
      <trkpt lat="58.6594118457" lon="16.0343220178">
        <ele>114.05</ele>
        <time>2012-08-19T18:31:53Z</time>
      </trkpt>
      <trkpt lat="58.6593451258" lon="16.0344339162">
        <ele>112.61</ele>
        <time>2012-08-19T18:31:57Z</time>
      </trkpt>
      <trkpt lat="58.6593082454" lon="16.0345109459">
        <ele>111.65</ele>
        <time>2012-08-19T18:31:59Z</time>
      </trkpt>
      <trkpt lat="58.6592168827" lon="16.034754524">
        <ele>110.69</ele>
        <time>2012-08-19T18:32:07Z</time>
      </trkpt>
      <trkpt lat="58.6591632385" lon="16.0349640716">
        <ele>108.29</ele>
        <time>2012-08-19T18:32:12Z</time>
      </trkpt>
      <trkpt lat="58.6591022182" lon="16.0351664107">
        <ele>107.81</ele>
        <time>2012-08-19T18:32:17Z</time>
      </trkpt>
      <trkpt lat="58.6590598058" lon="16.0352449492">
        <ele>106.84</ele>
        <time>2012-08-19T18:32:20Z</time>
      </trkpt>
      <trkpt lat="58.6589945946" lon="16.0354451928">
        <ele>105.4</ele>
        <time>2012-08-19T18:32:25Z</time>
      </trkpt>
      <trkpt lat="58.6589248572" lon="16.0356001742">
        <ele>103.48</ele>
        <time>2012-08-19T18:32:29Z</time>
      </trkpt>
      <trkpt lat="58.6588489171" lon="16.0356728453">
        <ele>103</ele>
        <time>2012-08-19T18:32:32Z</time>
      </trkpt>
      <trkpt lat="58.658769289" lon="16.0358216241">
        <ele>102.04</ele>
        <time>2012-08-19T18:32:36Z</time>
      </trkpt>
      <trkpt lat="58.658701228" lon="16.0360982269">
        <ele>102.04</ele>
        <time>2012-08-19T18:32:44Z</time>
      </trkpt>
      <trkpt lat="58.658627551" lon="16.036124127">
        <ele>103</ele>
        <time>2012-08-19T18:32:47Z</time>
      </trkpt>
      <trkpt lat="58.6584267206" lon="16.0361039266">
        <ele>102.52</ele>
        <time>2012-08-19T18:32:55Z</time>
      </trkpt>
      <trkpt lat="58.6581997387" lon="16.036069477">
        <ele>102.52</ele>
        <time>2012-08-19T18:33:03Z</time>
      </trkpt>
      <trkpt lat="58.6580293346" lon="16.0361330956">
        <ele>101.56</ele>
        <time>2012-08-19T18:33:10Z</time>
      </trkpt>
      <trkpt lat="58.6578778736" lon="16.0360451695">
        <ele>101.08</ele>
        <time>2012-08-19T18:33:16Z</time>
      </trkpt>
      <trkpt lat="58.6577390693" lon="16.0358235519">
        <ele>100.11</ele>
        <time>2012-08-19T18:33:23Z</time>
      </trkpt>
      <trkpt lat="58.6577227246" lon="16.0357293393">
        <ele>100.11</ele>
        <time>2012-08-19T18:33:25Z</time>
      </trkpt>
      <trkpt lat="58.6577340402" lon="16.0355586838">
        <ele>100.11</ele>
        <time>2012-08-19T18:33:31Z</time>
      </trkpt>
      <trkpt lat="58.6576507241" lon="16.0355461109">
        <ele>98.67</ele>
        <time>2012-08-19T18:33:35Z</time>
      </trkpt>
      <trkpt lat="58.6573013663" lon="16.0355753638">
        <ele>96.27</ele>
        <time>2012-08-19T18:33:46Z</time>
      </trkpt>
      <trkpt lat="58.6571592093" lon="16.0355042014">
        <ele>94.35</ele>
        <time>2012-08-19T18:33:51Z</time>
      </trkpt>
      <trkpt lat="58.6570674274" lon="16.0353524052">
        <ele>92.9</ele>
        <time>2012-08-19T18:33:55Z</time>
      </trkpt>
      <trkpt lat="58.6569294613" lon="16.0351896286">
        <ele>91.94</ele>
        <time>2012-08-19T18:34:01Z</time>
      </trkpt>
      <trkpt lat="58.6570106819" lon="16.0349364951">
        <ele>91.94</ele>
        <time>2012-08-19T18:34:10Z</time>
      </trkpt>
      <trkpt lat="58.6571237538" lon="16.0343745723">
        <ele>93.39</ele>
        <time>2012-08-19T18:34:21Z</time>
      </trkpt>
      <trkpt lat="58.6570332292" lon="16.0339754261">
        <ele>92.42</ele>
        <time>2012-08-19T18:34:30Z</time>
      </trkpt>
      <trkpt lat="58.6570165493" lon="16.0339344386">
        <ele>92.42</ele>
        <time>2012-08-19T18:34:31Z</time>
      </trkpt>
      <trkpt lat="58.6568879709" lon="16.0336164292">
        <ele>92.42</ele>
        <time>2012-08-19T18:34:40Z</time>
      </trkpt>
      <trkpt lat="58.6568145454" lon="16.0332216416">
        <ele>92.9</ele>
        <time>2012-08-19T18:34:48Z</time>
      </trkpt>
      <trkpt lat="58.6568447202" lon="16.0326079186">
        <ele>93.39</ele>
        <time>2012-08-19T18:34:59Z</time>
      </trkpt>
      <trkpt lat="58.6568657588" lon="16.0323200002">
        <ele>93.87</ele>
        <time>2012-08-19T18:35:05Z</time>
      </trkpt>
      <trkpt lat="58.6568876356" lon="16.0322363488">
        <ele>93.87</ele>
        <time>2012-08-19T18:35:07Z</time>
      </trkpt>
      <trkpt lat="58.657038426" lon="16.0317838099">
        <ele>95.31</ele>
        <time>2012-08-19T18:35:18Z</time>
      </trkpt>
      <trkpt lat="58.6570899747" lon="16.0316472687">
        <ele>96.27</ele>
        <time>2012-08-19T18:35:22Z</time>
      </trkpt>
      <trkpt lat="58.6572934035" lon="16.0312748607">
        <ele>96.75</ele>
        <time>2012-08-19T18:35:33Z</time>
      </trkpt>
      <trkpt lat="58.6574565154" lon="16.0308516584">
        <ele>97.71</ele>
        <time>2012-08-19T18:35:44Z</time>
      </trkpt>
      <trkpt lat="58.6574852653" lon="16.0307082441">
        <ele>98.19</ele>
        <time>2012-08-19T18:35:47Z</time>
      </trkpt>
      <trkpt lat="58.6575327069" lon="16.0305492394">
        <ele>98.67</ele>
        <time>2012-08-19T18:35:50Z</time>
      </trkpt>
      <trkpt lat="58.6575601157" lon="16.0303455591">
        <ele>98.67</ele>
        <time>2012-08-19T18:35:55Z</time>
      </trkpt>
      <trkpt lat="58.6575856805" lon="16.0299200937">
        <ele>99.63</ele>
        <time>2012-08-19T18:36:03Z</time>
      </trkpt>
      <trkpt lat="58.657582663" lon="16.0296723247">
        <ele>100.6</ele>
        <time>2012-08-19T18:36:07Z</time>
      </trkpt>
      <trkpt lat="58.6575670727" lon="16.0291394871">
        <ele>102.04</ele>
        <time>2012-08-19T18:36:17Z</time>
      </trkpt>
      <trkpt lat="58.6575964931" lon="16.0286940727">
        <ele>102.52</ele>
        <time>2012-08-19T18:36:26Z</time>
      </trkpt>
      <trkpt lat="58.6576026957" lon="16.0286478885">
        <ele>102.52</ele>
        <time>2012-08-19T18:36:27Z</time>
      </trkpt>
      <trkpt lat="58.6576710083" lon="16.0284695216">
        <ele>103.96</ele>
        <time>2012-08-19T18:36:32Z</time>
      </trkpt>
      <trkpt lat="58.6577340402" lon="16.0283305496">
        <ele>104.92</ele>
        <time>2012-08-19T18:36:37Z</time>
      </trkpt>
      <trkpt lat="58.6578906141" lon="16.0281432979">
        <ele>105.88</ele>
        <time>2012-08-19T18:36:45Z</time>
      </trkpt>
      <trkpt lat="58.6580042727" lon="16.028049672">
        <ele>105.88</ele>
        <time>2012-08-19T18:36:50Z</time>
      </trkpt>
      <trkpt lat="58.658107454" lon="16.027951017">
        <ele>107.81</ele>
        <time>2012-08-19T18:36:55Z</time>
      </trkpt>
      <trkpt lat="58.6582067795" lon="16.0277572274">
        <ele>107.81</ele>
        <time>2012-08-19T18:37:01Z</time>
      </trkpt>
      <trkpt lat="58.6582529638" lon="16.0274877492">
        <ele>108.77</ele>
        <time>2012-08-19T18:37:06Z</time>
      </trkpt>
      <trkpt lat="58.6582817975" lon="16.0273241345">
        <ele>108.77</ele>
        <time>2012-08-19T18:37:09Z</time>
      </trkpt>
      <trkpt lat="58.6583601683" lon="16.0269323643">
        <ele>109.73</ele>
        <time>2012-08-19T18:37:18Z</time>
      </trkpt>
      <trkpt lat="58.6584295705" lon="16.0266488884">
        <ele>110.21</ele>
        <time>2012-08-19T18:37:24Z</time>
      </trkpt>
      <trkpt lat="58.6584898364" lon="16.0264404304">
        <ele>110.69</ele>
        <time>2012-08-19T18:37:29Z</time>
      </trkpt>
      <trkpt lat="58.6585374456" lon="16.02595428">
        <ele>111.65</ele>
        <time>2012-08-19T18:37:39Z</time>
      </trkpt>
      <trkpt lat="58.6585515272" lon="16.0256988835">
        <ele>111.65</ele>
        <time>2012-08-19T18:37:44Z</time>
      </trkpt>
      <trkpt lat="58.6586383637" lon="16.0252165888">
        <ele>112.13</ele>
        <time>2012-08-19T18:37:55Z</time>
      </trkpt>
      <trkpt lat="58.6587696243" lon="16.0247999243">
        <ele>112.61</ele>
        <time>2012-08-19T18:38:04Z</time>
      </trkpt>
      <trkpt lat="58.6589875538" lon="16.0243932344">
        <ele>113.09</ele>
        <time>2012-08-19T18:38:16Z</time>
      </trkpt>
      <trkpt lat="58.6590836104" lon="16.0242306255">
        <ele>112.61</ele>
        <time>2012-08-19T18:38:21Z</time>
      </trkpt>
      <trkpt lat="58.6591925751" lon="16.0239660926">
        <ele>112.61</ele>
        <time>2012-08-19T18:38:28Z</time>
      </trkpt>
      <trkpt lat="58.6592383403" lon="16.0237726383">
        <ele>112.61</ele>
        <time>2012-08-19T18:38:32Z</time>
      </trkpt>
      <trkpt lat="58.6593453772" lon="16.0233506095">
        <ele>113.57</ele>
        <time>2012-08-19T18:38:40Z</time>
      </trkpt>
      <trkpt lat="58.6594652385" lon="16.0229203664">
        <ele>113.09</ele>
        <time>2012-08-19T18:38:49Z</time>
      </trkpt>
      <trkpt lat="58.659605803" lon="16.022641249">
        <ele>113.57</ele>
        <time>2012-08-19T18:38:57Z</time>
      </trkpt>
      <trkpt lat="58.6598616187" lon="16.0224232357">
        <ele>113.09</ele>
        <time>2012-08-19T18:39:07Z</time>
      </trkpt>
      <trkpt lat="58.6601659656" lon="16.0220084153">
        <ele>113.09</ele>
        <time>2012-08-19T18:39:20Z</time>
      </trkpt>
      <trkpt lat="58.6603698134" lon="16.0215389449">
        <ele>112.13</ele>
        <time>2012-08-19T18:39:31Z</time>
      </trkpt>
      <trkpt lat="58.660563603" lon="16.0210387129">
        <ele>110.21</ele>
        <time>2012-08-19T18:39:42Z</time>
      </trkpt>
      <trkpt lat="58.6607412156" lon="16.0204052087">
        <ele>108.29</ele>
        <time>2012-08-19T18:39:54Z</time>
      </trkpt>
      <trkpt lat="58.6608853005" lon="16.019893242">
        <ele>106.36</ele>
        <time>2012-08-19T18:40:04Z</time>
      </trkpt>
      <trkpt lat="58.6609775852" lon="16.0195350833">
        <ele>105.4</ele>
        <time>2012-08-19T18:40:10Z</time>
      </trkpt>
      <trkpt lat="58.6610435508" lon="16.0191214364">
        <ele>105.4</ele>
        <time>2012-08-19T18:40:19Z</time>
      </trkpt>
      <trkpt lat="58.661055956" lon="16.0187264811">
        <ele>104.92</ele>
        <time>2012-08-19T18:40:27Z</time>
      </trkpt>
      <trkpt lat="58.6611890607" lon="16.0183204617">
        <ele>104.92</ele>
        <time>2012-08-19T18:40:36Z</time>
      </trkpt>
      <trkpt lat="58.6613030545" lon="16.0179565195">
        <ele>104.44</ele>
        <time>2012-08-19T18:40:44Z</time>
      </trkpt>
      <trkpt lat="58.6612836923" lon="16.0174296331">
        <ele>104.44</ele>
        <time>2012-08-19T18:40:54Z</time>
      </trkpt>
      <trkpt lat="58.6612663418" lon="16.0173743125">
        <ele>103.96</ele>
        <time>2012-08-19T18:40:55Z</time>
      </trkpt>
      <trkpt lat="58.6611374281" lon="16.0168149881">
        <ele>102.04</ele>
        <time>2012-08-19T18:41:06Z</time>
      </trkpt>
      <trkpt lat="58.6612256896" lon="16.0162047017">
        <ele>101.56</ele>
        <time>2012-08-19T18:41:18Z</time>
      </trkpt>
      <trkpt lat="58.6612265278" lon="16.0161559191">
        <ele>101.56</ele>
        <time>2012-08-19T18:41:19Z</time>
      </trkpt>
      <trkpt lat="58.661049502" lon="16.0157769732">
        <ele>100.6</ele>
        <time>2012-08-19T18:41:28Z</time>
      </trkpt>
      <trkpt lat="58.6608138029" lon="16.0155157093">
        <ele>99.63</ele>
        <time>2012-08-19T18:41:37Z</time>
      </trkpt>
      <trkpt lat="58.6608037446" lon="16.01535419">
        <ele>99.15</ele>
        <time>2012-08-19T18:41:40Z</time>
      </trkpt>
      <trkpt lat="58.6609734781" lon="16.0147489328">
        <ele>96.75</ele>
        <time>2012-08-19T18:41:52Z</time>
      </trkpt>
      <trkpt lat="58.6610818561" lon="16.0142669734">
        <ele>95.79</ele>
        <time>2012-08-19T18:42:01Z</time>
      </trkpt>
      <trkpt lat="58.661199538" lon="16.013769675">
        <ele>95.79</ele>
        <time>2012-08-19T18:42:11Z</time>
      </trkpt>
      <trkpt lat="58.661298696" lon="16.0131308902">
        <ele>91.94</ele>
        <time>2012-08-19T18:42:23Z</time>
      </trkpt>
      <trkpt lat="58.6612987798" lon="16.0130829457">
        <ele>91.46</ele>
        <time>2012-08-19T18:42:24Z</time>
      </trkpt>
      <trkpt lat="58.6613387614" lon="16.0127111245">
        <ele>89.06</ele>
        <time>2012-08-19T18:42:30Z</time>
      </trkpt>
      <trkpt lat="58.6614960898" lon="16.0123916902">
        <ele>87.14</ele>
        <time>2012-08-19T18:42:38Z</time>
      </trkpt>
      <trkpt lat="58.6615099199" lon="16.0123608448">
        <ele>86.66</ele>
        <time>2012-08-19T18:42:39Z</time>
      </trkpt>
      <trkpt lat="58.6617314536" lon="16.0120880138">
        <ele>83.29</ele>
        <time>2012-08-19T18:42:48Z</time>
      </trkpt>
      <trkpt lat="58.6617882829" lon="16.0120181087">
        <ele>82.33</ele>
        <time>2012-08-19T18:42:50Z</time>
      </trkpt>
      <trkpt lat="58.6618772149" lon="16.0118483752">
        <ele>81.37</ele>
        <time>2012-08-19T18:42:54Z</time>
      </trkpt>
      <trkpt lat="58.6617791466" lon="16.011364907">
        <ele>78.48</ele>
        <time>2012-08-19T18:43:03Z</time>
      </trkpt>
      <trkpt lat="58.6617425177" lon="16.0112676769">
        <ele>78.48</ele>
        <time>2012-08-19T18:43:05Z</time>
      </trkpt>
      <trkpt lat="58.6616063118" lon="16.0108818579">
        <ele>77.04</ele>
        <time>2012-08-19T18:43:12Z</time>
      </trkpt>
      <trkpt lat="58.6614233349" lon="16.0103673767">
        <ele>76.56</ele>
        <time>2012-08-19T18:43:23Z</time>
      </trkpt>
      <trkpt lat="58.6612360831" lon="16.0098639596">
        <ele>76.08</ele>
        <time>2012-08-19T18:43:34Z</time>
      </trkpt>
      <trkpt lat="58.6610824428" lon="16.0094391648">
        <ele>76.56</ele>
        <time>2012-08-19T18:43:43Z</time>
      </trkpt>
      <trkpt lat="58.6611216702" lon="16.0090755578">
        <ele>77.04</ele>
        <time>2012-08-19T18:43:50Z</time>
      </trkpt>
      <trkpt lat="58.6612704489" lon="16.0085283034">
        <ele>75.6</ele>
        <time>2012-08-19T18:44:01Z</time>
      </trkpt>
      <trkpt lat="58.6614145339" lon="16.007992113">
        <ele>75.6</ele>
        <time>2012-08-19T18:44:12Z</time>
      </trkpt>
      <trkpt lat="58.6615197267" lon="16.0077402368">
        <ele>76.08</ele>
        <time>2012-08-19T18:44:18Z</time>
      </trkpt>
      <trkpt lat="58.6616137717" lon="16.007215362">
        <ele>76.08</ele>
        <time>2012-08-19T18:44:28Z</time>
      </trkpt>
      <trkpt lat="58.6617026199" lon="16.0067795031">
        <ele>75.12</ele>
        <time>2012-08-19T18:44:37Z</time>
      </trkpt>
      <trkpt lat="58.6617995147" lon="16.0063005611">
        <ele>75.12</ele>
        <time>2012-08-19T18:44:47Z</time>
      </trkpt>
      <trkpt lat="58.6618251633" lon="16.0061366111">
        <ele>75.12</ele>
        <time>2012-08-19T18:44:50Z</time>
      </trkpt>
      <trkpt lat="58.6616964173" lon="16.0058493633">
        <ele>75.6</ele>
        <time>2012-08-19T18:44:58Z</time>
      </trkpt>
      <trkpt lat="58.6616314575" lon="16.0059532989">
        <ele>75.12</ele>
        <time>2012-08-19T18:45:09Z</time>
      </trkpt>
    </trkseg>
  </trk>
</gpx>